<?xml version="1.0" encoding="UTF-8" standalone="no" ?>
<gpx xmlns="http://www.topografix.com/GPX/1/1" xmlns:xsi="http://www.w3.org/2001/XMLSchema-instance" xsi:schemaLocation="http://www.topografix.com/GPX/1/1 http://www.topografix.com/GPX/1/1/gpx.xsd" version="1.1" creator="VisuGPX - https://www.visugpx.com">
  <metadata>
    <name>Rando - Crest chemin des crêtes</name>
    <desc><![CDATA[Mini rando vers Crest.]]></desc>
  </metadata>
  <trk>
    <name><![CDATA[2022-10-16_092049--Crest crete]]></name>
    <extensions>
      <line xmlns="http://www.topografix.com/GPX/gpx_style/0/2">
        <width>3</width>
      </line>
    </extensions>
    <trkseg>
      <trkpt lat="44.73155" lon="5.02517">
        <ele>299</ele>
        <time>2022-10-16T07:20:49.000Z</time>
      </trkpt>
      <trkpt lat="44.73155" lon="5.02517">
        <ele>299</ele>
        <time>2022-10-16T07:20:49.000Z</time>
      </trkpt>
      <trkpt lat="44.73151" lon="5.02521">
        <ele>303</ele>
        <time>2022-10-16T07:20:50.000Z</time>
      </trkpt>
      <trkpt lat="44.73159" lon="5.02529">
        <ele>299.1</ele>
        <time>2022-10-16T07:20:57.000Z</time>
      </trkpt>
      <trkpt lat="44.73166" lon="5.02537">
        <ele>300.3</ele>
        <time>2022-10-16T07:21:09.000Z</time>
      </trkpt>
      <trkpt lat="44.73174" lon="5.02544">
        <ele>302.4</ele>
        <time>2022-10-16T07:21:22.000Z</time>
      </trkpt>
      <trkpt lat="44.73184" lon="5.02549">
        <ele>304.4</ele>
        <time>2022-10-16T07:21:32.000Z</time>
      </trkpt>
      <trkpt lat="44.73193" lon="5.02553">
        <ele>306.4</ele>
        <time>2022-10-16T07:21:50.000Z</time>
      </trkpt>
      <trkpt lat="44.73201" lon="5.02559">
        <ele>309.2</ele>
        <time>2022-10-16T07:22:06.000Z</time>
      </trkpt>
      <trkpt lat="44.7321" lon="5.02562">
        <ele>309.9</ele>
        <time>2022-10-16T07:22:16.000Z</time>
      </trkpt>
      <trkpt lat="44.73219" lon="5.02568">
        <ele>310.6</ele>
        <time>2022-10-16T07:22:26.000Z</time>
      </trkpt>
      <trkpt lat="44.73228" lon="5.02573">
        <ele>311.9</ele>
        <time>2022-10-16T07:22:33.000Z</time>
      </trkpt>
      <trkpt lat="44.73236" lon="5.02578">
        <ele>312.3</ele>
        <time>2022-10-16T07:22:39.000Z</time>
      </trkpt>
      <trkpt lat="44.73244" lon="5.02586">
        <ele>314.7</ele>
        <time>2022-10-16T07:22:52.000Z</time>
      </trkpt>
      <trkpt lat="44.73252" lon="5.02592">
        <ele>317.9</ele>
        <time>2022-10-16T07:23:10.000Z</time>
      </trkpt>
      <trkpt lat="44.73252" lon="5.02592">
        <ele>318.4</ele>
        <time>2022-10-16T07:23:12.000Z</time>
      </trkpt>
      <trkpt lat="44.73253" lon="5.02592">
        <ele>318.4</ele>
        <time>2022-10-16T07:23:13.000Z</time>
      </trkpt>
      <trkpt lat="44.73261" lon="5.02584">
        <ele>320.8</ele>
        <time>2022-10-16T07:23:23.000Z</time>
      </trkpt>
      <trkpt lat="44.7327" lon="5.0258">
        <ele>322.4</ele>
        <time>2022-10-16T07:23:32.000Z</time>
      </trkpt>
      <trkpt lat="44.73277" lon="5.02588">
        <ele>322.4</ele>
        <time>2022-10-16T07:23:42.000Z</time>
      </trkpt>
      <trkpt lat="44.73277" lon="5.02601">
        <ele>321.9</ele>
        <time>2022-10-16T07:23:55.000Z</time>
      </trkpt>
      <trkpt lat="44.73273" lon="5.02613">
        <ele>321.9</ele>
        <time>2022-10-16T07:24:04.000Z</time>
      </trkpt>
      <trkpt lat="44.7328" lon="5.02623">
        <ele>322.9</ele>
        <time>2022-10-16T07:24:13.000Z</time>
      </trkpt>
      <trkpt lat="44.73288" lon="5.02631">
        <ele>323.6</ele>
        <time>2022-10-16T07:24:21.000Z</time>
      </trkpt>
      <trkpt lat="44.73292" lon="5.02642">
        <ele>322.4</ele>
        <time>2022-10-16T07:24:30.000Z</time>
      </trkpt>
      <trkpt lat="44.73292" lon="5.02642">
        <ele>322.5</ele>
        <time>2022-10-16T07:24:31.000Z</time>
      </trkpt>
      <trkpt lat="44.73292" lon="5.02642">
        <ele>322.3</ele>
        <time>2022-10-16T07:24:33.000Z</time>
      </trkpt>
      <trkpt lat="44.73301" lon="5.02649">
        <ele>322.8</ele>
        <time>2022-10-16T07:24:42.000Z</time>
      </trkpt>
      <trkpt lat="44.73309" lon="5.02652">
        <ele>324.1</ele>
        <time>2022-10-16T07:24:53.000Z</time>
      </trkpt>
      <trkpt lat="44.73309" lon="5.02652">
        <ele>324.2</ele>
        <time>2022-10-16T07:24:54.000Z</time>
      </trkpt>
      <trkpt lat="44.73309" lon="5.02652">
        <ele>324</ele>
        <time>2022-10-16T07:24:56.000Z</time>
      </trkpt>
      <trkpt lat="44.7331" lon="5.02652">
        <ele>324.1</ele>
        <time>2022-10-16T07:24:57.000Z</time>
      </trkpt>
      <trkpt lat="44.7331" lon="5.02651">
        <ele>323.9</ele>
        <time>2022-10-16T07:24:59.000Z</time>
      </trkpt>
      <trkpt lat="44.7331" lon="5.02651">
        <ele>323.9</ele>
        <time>2022-10-16T07:25:00.000Z</time>
      </trkpt>
      <trkpt lat="44.73318" lon="5.02659">
        <ele>324</ele>
        <time>2022-10-16T07:25:18.000Z</time>
      </trkpt>
      <trkpt lat="44.73324" lon="5.0267">
        <ele>324.3</ele>
        <time>2022-10-16T07:25:27.000Z</time>
      </trkpt>
      <trkpt lat="44.7333" lon="5.02677">
        <ele>324.6</ele>
        <time>2022-10-16T07:25:34.000Z</time>
      </trkpt>
      <trkpt lat="44.7333" lon="5.02678">
        <ele>324.6</ele>
        <time>2022-10-16T07:25:35.000Z</time>
      </trkpt>
      <trkpt lat="44.73337" lon="5.02687">
        <ele>324.8</ele>
        <time>2022-10-16T07:25:45.000Z</time>
      </trkpt>
      <trkpt lat="44.73344" lon="5.02696">
        <ele>325.6</ele>
        <time>2022-10-16T07:25:55.000Z</time>
      </trkpt>
      <trkpt lat="44.73351" lon="5.02704">
        <ele>326.5</ele>
        <time>2022-10-16T07:26:04.000Z</time>
      </trkpt>
      <trkpt lat="44.73355" lon="5.02716">
        <ele>327.8</ele>
        <time>2022-10-16T07:26:12.000Z</time>
      </trkpt>
      <trkpt lat="44.73364" lon="5.02723">
        <ele>328.3</ele>
        <time>2022-10-16T07:26:21.000Z</time>
      </trkpt>
      <trkpt lat="44.73373" lon="5.02727">
        <ele>329.4</ele>
        <time>2022-10-16T07:26:29.000Z</time>
      </trkpt>
      <trkpt lat="44.73383" lon="5.02728">
        <ele>330.6</ele>
        <time>2022-10-16T07:26:36.000Z</time>
      </trkpt>
      <trkpt lat="44.73391" lon="5.02734">
        <ele>331.1</ele>
        <time>2022-10-16T07:26:44.000Z</time>
      </trkpt>
      <trkpt lat="44.73399" lon="5.02739">
        <ele>331.5</ele>
        <time>2022-10-16T07:26:51.000Z</time>
      </trkpt>
      <trkpt lat="44.73405" lon="5.0275">
        <ele>332.1</ele>
        <time>2022-10-16T07:27:00.000Z</time>
      </trkpt>
      <trkpt lat="44.73405" lon="5.0275">
        <ele>332</ele>
        <time>2022-10-16T07:27:01.000Z</time>
      </trkpt>
      <trkpt lat="44.73405" lon="5.02749">
        <ele>331.9</ele>
        <time>2022-10-16T07:27:02.000Z</time>
      </trkpt>
      <trkpt lat="44.73413" lon="5.02758">
        <ele>333</ele>
        <time>2022-10-16T07:27:11.000Z</time>
      </trkpt>
      <trkpt lat="44.73417" lon="5.0277">
        <ele>333.3</ele>
        <time>2022-10-16T07:27:18.000Z</time>
      </trkpt>
      <trkpt lat="44.73423" lon="5.0278">
        <ele>334</ele>
        <time>2022-10-16T07:27:27.000Z</time>
      </trkpt>
      <trkpt lat="44.73431" lon="5.02785">
        <ele>333.8</ele>
        <time>2022-10-16T07:27:38.000Z</time>
      </trkpt>
      <trkpt lat="44.73438" lon="5.02794">
        <ele>333.8</ele>
        <time>2022-10-16T07:27:48.000Z</time>
      </trkpt>
      <trkpt lat="44.73446" lon="5.02801">
        <ele>333.9</ele>
        <time>2022-10-16T07:27:57.000Z</time>
      </trkpt>
      <trkpt lat="44.73453" lon="5.0281">
        <ele>333.3</ele>
        <time>2022-10-16T07:28:06.000Z</time>
      </trkpt>
      <trkpt lat="44.73458" lon="5.02821">
        <ele>332.9</ele>
        <time>2022-10-16T07:28:13.000Z</time>
      </trkpt>
      <trkpt lat="44.73465" lon="5.02829">
        <ele>332.8</ele>
        <time>2022-10-16T07:28:20.000Z</time>
      </trkpt>
      <trkpt lat="44.73474" lon="5.02834">
        <ele>333</ele>
        <time>2022-10-16T07:28:29.000Z</time>
      </trkpt>
      <trkpt lat="44.73483" lon="5.02836">
        <ele>332.2</ele>
        <time>2022-10-16T07:28:40.000Z</time>
      </trkpt>
      <trkpt lat="44.73492" lon="5.02837">
        <ele>332.7</ele>
        <time>2022-10-16T07:28:54.000Z</time>
      </trkpt>
      <trkpt lat="44.73501" lon="5.02839">
        <ele>332.9</ele>
        <time>2022-10-16T07:29:03.000Z</time>
      </trkpt>
      <trkpt lat="44.7351" lon="5.02845">
        <ele>333.4</ele>
        <time>2022-10-16T07:29:12.000Z</time>
      </trkpt>
      <trkpt lat="44.73517" lon="5.02854">
        <ele>332.7</ele>
        <time>2022-10-16T07:29:19.000Z</time>
      </trkpt>
      <trkpt lat="44.73526" lon="5.0286">
        <ele>332.8</ele>
        <time>2022-10-16T07:29:26.000Z</time>
      </trkpt>
      <trkpt lat="44.73531" lon="5.0287">
        <ele>333.1</ele>
        <time>2022-10-16T07:29:34.000Z</time>
      </trkpt>
      <trkpt lat="44.73538" lon="5.02879">
        <ele>332.3</ele>
        <time>2022-10-16T07:29:41.000Z</time>
      </trkpt>
      <trkpt lat="44.73546" lon="5.02888">
        <ele>330.8</ele>
        <time>2022-10-16T07:29:51.000Z</time>
      </trkpt>
      <trkpt lat="44.73555" lon="5.02894">
        <ele>330.6</ele>
        <time>2022-10-16T07:30:00.000Z</time>
      </trkpt>
      <trkpt lat="44.73559" lon="5.02899">
        <ele>331.8</ele>
        <time>2022-10-16T07:30:17.000Z</time>
      </trkpt>
      <trkpt lat="44.73559" lon="5.029">
        <ele>331.4</ele>
        <time>2022-10-16T07:30:18.000Z</time>
      </trkpt>
      <trkpt lat="44.73563" lon="5.02899">
        <ele>334.6</ele>
        <time>2022-10-16T07:30:31.000Z</time>
      </trkpt>
      <trkpt lat="44.73564" lon="5.029">
        <ele>334.7</ele>
        <time>2022-10-16T07:30:33.000Z</time>
      </trkpt>
      <trkpt lat="44.73572" lon="5.02906">
        <ele>336</ele>
        <time>2022-10-16T07:30:49.000Z</time>
      </trkpt>
      <trkpt lat="44.73581" lon="5.02909">
        <ele>337</ele>
        <time>2022-10-16T07:30:59.000Z</time>
      </trkpt>
      <trkpt lat="44.73591" lon="5.02913">
        <ele>340.1</ele>
        <time>2022-10-16T07:31:10.000Z</time>
      </trkpt>
      <trkpt lat="44.736" lon="5.02915">
        <ele>342.2</ele>
        <time>2022-10-16T07:31:20.000Z</time>
      </trkpt>
      <trkpt lat="44.73609" lon="5.02912">
        <ele>344.2</ele>
        <time>2022-10-16T07:31:34.000Z</time>
      </trkpt>
      <trkpt lat="44.73619" lon="5.02916">
        <ele>344.4</ele>
        <time>2022-10-16T07:31:46.000Z</time>
      </trkpt>
      <trkpt lat="44.73626" lon="5.02926">
        <ele>342.7</ele>
        <time>2022-10-16T07:31:53.000Z</time>
      </trkpt>
      <trkpt lat="44.7363" lon="5.02935">
        <ele>343</ele>
        <time>2022-10-16T07:32:05.000Z</time>
      </trkpt>
      <trkpt lat="44.7363" lon="5.02935">
        <ele>343</ele>
        <time>2022-10-16T07:32:06.000Z</time>
      </trkpt>
      <trkpt lat="44.7363" lon="5.02936">
        <ele>342.7</ele>
        <time>2022-10-16T07:32:12.000Z</time>
      </trkpt>
      <trkpt lat="44.73631" lon="5.02936">
        <ele>342.8</ele>
        <time>2022-10-16T07:32:14.000Z</time>
      </trkpt>
      <trkpt lat="44.73631" lon="5.02936">
        <ele>342.9</ele>
        <time>2022-10-16T07:32:16.000Z</time>
      </trkpt>
      <trkpt lat="44.73631" lon="5.02936">
        <ele>343.8</ele>
        <time>2022-10-16T07:32:17.000Z</time>
      </trkpt>
      <trkpt lat="44.7364" lon="5.02935">
        <ele>344.5</ele>
        <time>2022-10-16T07:32:27.000Z</time>
      </trkpt>
      <trkpt lat="44.73649" lon="5.02939">
        <ele>347.1</ele>
        <time>2022-10-16T07:32:37.000Z</time>
      </trkpt>
      <trkpt lat="44.7366" lon="5.02932">
        <ele>347.9</ele>
        <time>2022-10-16T07:32:43.000Z</time>
      </trkpt>
      <trkpt lat="44.73668" lon="5.02939">
        <ele>350.1</ele>
        <time>2022-10-16T07:32:52.000Z</time>
      </trkpt>
      <trkpt lat="44.73677" lon="5.02941">
        <ele>352</ele>
        <time>2022-10-16T07:33:03.000Z</time>
      </trkpt>
      <trkpt lat="44.73687" lon="5.02943">
        <ele>355.7</ele>
        <time>2022-10-16T07:33:16.000Z</time>
      </trkpt>
      <trkpt lat="44.73696" lon="5.0294">
        <ele>357.4</ele>
        <time>2022-10-16T07:33:25.000Z</time>
      </trkpt>
      <trkpt lat="44.73705" lon="5.02944">
        <ele>358.9</ele>
        <time>2022-10-16T07:33:35.000Z</time>
      </trkpt>
      <trkpt lat="44.73715" lon="5.0295">
        <ele>360.8</ele>
        <time>2022-10-16T07:33:44.000Z</time>
      </trkpt>
      <trkpt lat="44.73723" lon="5.02958">
        <ele>361.7</ele>
        <time>2022-10-16T07:33:50.000Z</time>
      </trkpt>
      <trkpt lat="44.73731" lon="5.02963">
        <ele>363.4</ele>
        <time>2022-10-16T07:33:57.000Z</time>
      </trkpt>
      <trkpt lat="44.73738" lon="5.02972">
        <ele>363.1</ele>
        <time>2022-10-16T07:34:05.000Z</time>
      </trkpt>
      <trkpt lat="44.73746" lon="5.02979">
        <ele>364.2</ele>
        <time>2022-10-16T07:34:12.000Z</time>
      </trkpt>
      <trkpt lat="44.7375" lon="5.02992">
        <ele>364.4</ele>
        <time>2022-10-16T07:34:21.000Z</time>
      </trkpt>
      <trkpt lat="44.73757" lon="5.03003">
        <ele>364</ele>
        <time>2022-10-16T07:34:29.000Z</time>
      </trkpt>
      <trkpt lat="44.73766" lon="5.03008">
        <ele>364.7</ele>
        <time>2022-10-16T07:34:39.000Z</time>
      </trkpt>
      <trkpt lat="44.73765" lon="5.0301">
        <ele>363.8</ele>
        <time>2022-10-16T07:34:46.000Z</time>
      </trkpt>
      <trkpt lat="44.73765" lon="5.0301">
        <ele>364</ele>
        <time>2022-10-16T07:34:50.000Z</time>
      </trkpt>
      <trkpt lat="44.73769" lon="5.03015">
        <ele>364.1</ele>
        <time>2022-10-16T07:35:08.000Z</time>
      </trkpt>
      <trkpt lat="44.73769" lon="5.03015">
        <ele>364.2</ele>
        <time>2022-10-16T07:35:10.000Z</time>
      </trkpt>
      <trkpt lat="44.73776" lon="5.0302">
        <ele>365.5</ele>
        <time>2022-10-16T07:35:36.000Z</time>
      </trkpt>
      <trkpt lat="44.73776" lon="5.0302">
        <ele>365.6</ele>
        <time>2022-10-16T07:35:40.000Z</time>
      </trkpt>
      <trkpt lat="44.73776" lon="5.03021">
        <ele>365.5</ele>
        <time>2022-10-16T07:35:43.000Z</time>
      </trkpt>
      <trkpt lat="44.73776" lon="5.03021">
        <ele>365.6</ele>
        <time>2022-10-16T07:35:49.000Z</time>
      </trkpt>
      <trkpt lat="44.73776" lon="5.03021">
        <ele>365.7</ele>
        <time>2022-10-16T07:35:50.000Z</time>
      </trkpt>
      <trkpt lat="44.73776" lon="5.03021">
        <ele>365.8</ele>
        <time>2022-10-16T07:35:51.000Z</time>
      </trkpt>
      <trkpt lat="44.73776" lon="5.0302">
        <ele>365.6</ele>
        <time>2022-10-16T07:35:52.000Z</time>
      </trkpt>
      <trkpt lat="44.73776" lon="5.0302">
        <ele>365.5</ele>
        <time>2022-10-16T07:35:53.000Z</time>
      </trkpt>
      <trkpt lat="44.73776" lon="5.0302">
        <ele>365.5</ele>
        <time>2022-10-16T07:35:55.000Z</time>
      </trkpt>
      <trkpt lat="44.73776" lon="5.0302">
        <ele>365.4</ele>
        <time>2022-10-16T07:35:56.000Z</time>
      </trkpt>
      <trkpt lat="44.73776" lon="5.03019">
        <ele>365.4</ele>
        <time>2022-10-16T07:35:57.000Z</time>
      </trkpt>
      <trkpt lat="44.73776" lon="5.03019">
        <ele>365.4</ele>
        <time>2022-10-16T07:35:58.000Z</time>
      </trkpt>
      <trkpt lat="44.73766" lon="5.03019">
        <ele>361.4</ele>
        <time>2022-10-16T07:36:18.000Z</time>
      </trkpt>
      <trkpt lat="44.73757" lon="5.03022">
        <ele>358.6</ele>
        <time>2022-10-16T07:36:28.000Z</time>
      </trkpt>
      <trkpt lat="44.7375" lon="5.03032">
        <ele>356.5</ele>
        <time>2022-10-16T07:36:37.000Z</time>
      </trkpt>
      <trkpt lat="44.73747" lon="5.0304">
        <ele>351.8</ele>
        <time>2022-10-16T07:36:50.000Z</time>
      </trkpt>
      <trkpt lat="44.73748" lon="5.0304">
        <ele>351.9</ele>
        <time>2022-10-16T07:36:51.000Z</time>
      </trkpt>
      <trkpt lat="44.73754" lon="5.0303">
        <ele>355.6</ele>
        <time>2022-10-16T07:37:02.000Z</time>
      </trkpt>
      <trkpt lat="44.73761" lon="5.03021">
        <ele>360.7</ele>
        <time>2022-10-16T07:37:18.000Z</time>
      </trkpt>
      <trkpt lat="44.73767" lon="5.03012">
        <ele>364.9</ele>
        <time>2022-10-16T07:37:34.000Z</time>
      </trkpt>
      <trkpt lat="44.73775" lon="5.03006">
        <ele>367.4</ele>
        <time>2022-10-16T07:37:47.000Z</time>
      </trkpt>
      <trkpt lat="44.73785" lon="5.03003">
        <ele>370.6</ele>
        <time>2022-10-16T07:38:03.000Z</time>
      </trkpt>
      <trkpt lat="44.73793" lon="5.03006">
        <ele>371.4</ele>
        <time>2022-10-16T07:38:17.000Z</time>
      </trkpt>
      <trkpt lat="44.738" lon="5.03014">
        <ele>372.2</ele>
        <time>2022-10-16T07:38:29.000Z</time>
      </trkpt>
      <trkpt lat="44.73809" lon="5.03015">
        <ele>372.8</ele>
        <time>2022-10-16T07:38:47.000Z</time>
      </trkpt>
      <trkpt lat="44.73809" lon="5.03015">
        <ele>372.6</ele>
        <time>2022-10-16T07:38:49.000Z</time>
      </trkpt>
      <trkpt lat="44.7381" lon="5.03013">
        <ele>372.8</ele>
        <time>2022-10-16T07:38:57.000Z</time>
      </trkpt>
      <trkpt lat="44.7381" lon="5.03013">
        <ele>372.7</ele>
        <time>2022-10-16T07:38:58.000Z</time>
      </trkpt>
      <trkpt lat="44.7381" lon="5.03019">
        <ele>371.9</ele>
        <time>2022-10-16T07:39:15.000Z</time>
      </trkpt>
      <trkpt lat="44.7381" lon="5.03019">
        <ele>371.7</ele>
        <time>2022-10-16T07:39:16.000Z</time>
      </trkpt>
      <trkpt lat="44.73811" lon="5.03021">
        <ele>372.4</ele>
        <time>2022-10-16T07:39:27.000Z</time>
      </trkpt>
      <trkpt lat="44.73811" lon="5.03021">
        <ele>372.2</ele>
        <time>2022-10-16T07:39:28.000Z</time>
      </trkpt>
      <trkpt lat="44.73811" lon="5.0302">
        <ele>372.1</ele>
        <time>2022-10-16T07:39:30.000Z</time>
      </trkpt>
      <trkpt lat="44.73811" lon="5.0302">
        <ele>372</ele>
        <time>2022-10-16T07:39:32.000Z</time>
      </trkpt>
      <trkpt lat="44.73811" lon="5.0302">
        <ele>372</ele>
        <time>2022-10-16T07:39:34.000Z</time>
      </trkpt>
      <trkpt lat="44.73811" lon="5.0302">
        <ele>371.9</ele>
        <time>2022-10-16T07:39:37.000Z</time>
      </trkpt>
      <trkpt lat="44.73811" lon="5.0302">
        <ele>372</ele>
        <time>2022-10-16T07:39:42.000Z</time>
      </trkpt>
      <trkpt lat="44.73811" lon="5.0302">
        <ele>371.9</ele>
        <time>2022-10-16T07:39:43.000Z</time>
      </trkpt>
      <trkpt lat="44.73806" lon="5.03029">
        <ele>371.8</ele>
        <time>2022-10-16T07:40:06.000Z</time>
      </trkpt>
      <trkpt lat="44.73806" lon="5.03029">
        <ele>371.9</ele>
        <time>2022-10-16T07:40:07.000Z</time>
      </trkpt>
      <trkpt lat="44.73806" lon="5.03028">
        <ele>372.4</ele>
        <time>2022-10-16T07:40:12.000Z</time>
      </trkpt>
      <trkpt lat="44.73806" lon="5.03029">
        <ele>372.4</ele>
        <time>2022-10-16T07:40:13.000Z</time>
      </trkpt>
      <trkpt lat="44.73811" lon="5.03017">
        <ele>377</ele>
        <time>2022-10-16T07:40:34.000Z</time>
      </trkpt>
      <trkpt lat="44.7382" lon="5.03009">
        <ele>380</ele>
        <time>2022-10-16T07:40:52.000Z</time>
      </trkpt>
      <trkpt lat="44.73825" lon="5.03007">
        <ele>381.7</ele>
        <time>2022-10-16T07:41:03.000Z</time>
      </trkpt>
      <trkpt lat="44.73825" lon="5.03006">
        <ele>382</ele>
        <time>2022-10-16T07:41:04.000Z</time>
      </trkpt>
      <trkpt lat="44.73833" lon="5.02999">
        <ele>385.9</ele>
        <time>2022-10-16T07:41:23.000Z</time>
      </trkpt>
      <trkpt lat="44.73834" lon="5.03">
        <ele>385.7</ele>
        <time>2022-10-16T07:41:27.000Z</time>
      </trkpt>
      <trkpt lat="44.73834" lon="5.03">
        <ele>386.8</ele>
        <time>2022-10-16T07:41:28.000Z</time>
      </trkpt>
      <trkpt lat="44.73836" lon="5.03001">
        <ele>387.2</ele>
        <time>2022-10-16T07:41:31.000Z</time>
      </trkpt>
      <trkpt lat="44.73836" lon="5.03001">
        <ele>386.9</ele>
        <time>2022-10-16T07:41:32.000Z</time>
      </trkpt>
      <trkpt lat="44.73836" lon="5.03001">
        <ele>386.8</ele>
        <time>2022-10-16T07:41:36.000Z</time>
      </trkpt>
      <trkpt lat="44.73837" lon="5.03001">
        <ele>386.8</ele>
        <time>2022-10-16T07:41:37.000Z</time>
      </trkpt>
      <trkpt lat="44.73837" lon="5.03001">
        <ele>386.7</ele>
        <time>2022-10-16T07:41:38.000Z</time>
      </trkpt>
      <trkpt lat="44.73836" lon="5.03001">
        <ele>386.5</ele>
        <time>2022-10-16T07:41:39.000Z</time>
      </trkpt>
      <trkpt lat="44.73836" lon="5.03001">
        <ele>386.6</ele>
        <time>2022-10-16T07:41:40.000Z</time>
      </trkpt>
      <trkpt lat="44.73837" lon="5.03001">
        <ele>387.3</ele>
        <time>2022-10-16T07:41:44.000Z</time>
      </trkpt>
      <trkpt lat="44.73843" lon="5.02996">
        <ele>390.7</ele>
        <time>2022-10-16T07:42:02.000Z</time>
      </trkpt>
      <trkpt lat="44.73842" lon="5.02995">
        <ele>390.7</ele>
        <time>2022-10-16T07:42:04.000Z</time>
      </trkpt>
      <trkpt lat="44.73842" lon="5.02994">
        <ele>391.6</ele>
        <time>2022-10-16T07:42:07.000Z</time>
      </trkpt>
      <trkpt lat="44.73841" lon="5.02994">
        <ele>392.6</ele>
        <time>2022-10-16T07:42:09.000Z</time>
      </trkpt>
      <trkpt lat="44.73842" lon="5.02991">
        <ele>395</ele>
        <time>2022-10-16T07:42:19.000Z</time>
      </trkpt>
      <trkpt lat="44.73842" lon="5.0299">
        <ele>395.2</ele>
        <time>2022-10-16T07:42:20.000Z</time>
      </trkpt>
      <trkpt lat="44.73844" lon="5.0299">
        <ele>397.3</ele>
        <time>2022-10-16T07:42:28.000Z</time>
      </trkpt>
      <trkpt lat="44.73845" lon="5.0299">
        <ele>397.3</ele>
        <time>2022-10-16T07:42:29.000Z</time>
      </trkpt>
      <trkpt lat="44.73845" lon="5.0299">
        <ele>397.4</ele>
        <time>2022-10-16T07:42:31.000Z</time>
      </trkpt>
      <trkpt lat="44.73845" lon="5.0299">
        <ele>397.2</ele>
        <time>2022-10-16T07:42:33.000Z</time>
      </trkpt>
      <trkpt lat="44.73854" lon="5.02988">
        <ele>395.9</ele>
        <time>2022-10-16T07:42:48.000Z</time>
      </trkpt>
      <trkpt lat="44.73854" lon="5.02987">
        <ele>395.8</ele>
        <time>2022-10-16T07:42:49.000Z</time>
      </trkpt>
      <trkpt lat="44.73864" lon="5.02987">
        <ele>395.8</ele>
        <time>2022-10-16T07:43:03.000Z</time>
      </trkpt>
      <trkpt lat="44.73873" lon="5.02992">
        <ele>396</ele>
        <time>2022-10-16T07:43:13.000Z</time>
      </trkpt>
      <trkpt lat="44.73882" lon="5.02997">
        <ele>398.3</ele>
        <time>2022-10-16T07:43:28.000Z</time>
      </trkpt>
      <trkpt lat="44.7389" lon="5.03004">
        <ele>399.6</ele>
        <time>2022-10-16T07:43:39.000Z</time>
      </trkpt>
      <trkpt lat="44.73899" lon="5.03009">
        <ele>400.1</ele>
        <time>2022-10-16T07:43:48.000Z</time>
      </trkpt>
      <trkpt lat="44.73909" lon="5.03012">
        <ele>399.9</ele>
        <time>2022-10-16T07:43:57.000Z</time>
      </trkpt>
      <trkpt lat="44.73918" lon="5.03015">
        <ele>399.1</ele>
        <time>2022-10-16T07:44:06.000Z</time>
      </trkpt>
      <trkpt lat="44.73927" lon="5.03019">
        <ele>399.3</ele>
        <time>2022-10-16T07:44:18.000Z</time>
      </trkpt>
      <trkpt lat="44.73936" lon="5.03019">
        <ele>399.8</ele>
        <time>2022-10-16T07:44:26.000Z</time>
      </trkpt>
      <trkpt lat="44.73946" lon="5.0302">
        <ele>398.6</ele>
        <time>2022-10-16T07:44:55.000Z</time>
      </trkpt>
      <trkpt lat="44.73954" lon="5.03027">
        <ele>398.2</ele>
        <time>2022-10-16T07:45:06.000Z</time>
      </trkpt>
      <trkpt lat="44.73963" lon="5.03031">
        <ele>398.6</ele>
        <time>2022-10-16T07:45:15.000Z</time>
      </trkpt>
      <trkpt lat="44.73972" lon="5.03033">
        <ele>398.4</ele>
        <time>2022-10-16T07:45:24.000Z</time>
      </trkpt>
      <trkpt lat="44.73981" lon="5.03036">
        <ele>396.6</ele>
        <time>2022-10-16T07:45:36.000Z</time>
      </trkpt>
      <trkpt lat="44.73984" lon="5.03037">
        <ele>396.8</ele>
        <time>2022-10-16T07:45:51.000Z</time>
      </trkpt>
      <trkpt lat="44.73984" lon="5.03037">
        <ele>396.6</ele>
        <time>2022-10-16T07:45:55.000Z</time>
      </trkpt>
      <trkpt lat="44.73994" lon="5.03036">
        <ele>395.3</ele>
        <time>2022-10-16T07:46:16.000Z</time>
      </trkpt>
      <trkpt lat="44.74" lon="5.03038">
        <ele>395.7</ele>
        <time>2022-10-16T07:46:26.000Z</time>
      </trkpt>
      <trkpt lat="44.74" lon="5.03038">
        <ele>395.7</ele>
        <time>2022-10-16T07:46:27.000Z</time>
      </trkpt>
      <trkpt lat="44.74009" lon="5.03041">
        <ele>395.7</ele>
        <time>2022-10-16T07:46:41.000Z</time>
      </trkpt>
      <trkpt lat="44.74018" lon="5.03044">
        <ele>395.8</ele>
        <time>2022-10-16T07:46:50.000Z</time>
      </trkpt>
      <trkpt lat="44.74028" lon="5.03045">
        <ele>395.4</ele>
        <time>2022-10-16T07:47:01.000Z</time>
      </trkpt>
      <trkpt lat="44.74036" lon="5.03048">
        <ele>394.7</ele>
        <time>2022-10-16T07:47:10.000Z</time>
      </trkpt>
      <trkpt lat="44.74046" lon="5.03049">
        <ele>394.2</ele>
        <time>2022-10-16T07:47:19.000Z</time>
      </trkpt>
      <trkpt lat="44.74055" lon="5.03053">
        <ele>394.2</ele>
        <time>2022-10-16T07:47:29.000Z</time>
      </trkpt>
      <trkpt lat="44.74064" lon="5.03054">
        <ele>393.6</ele>
        <time>2022-10-16T07:47:36.000Z</time>
      </trkpt>
      <trkpt lat="44.74073" lon="5.03057">
        <ele>393.8</ele>
        <time>2022-10-16T07:47:43.000Z</time>
      </trkpt>
      <trkpt lat="44.74082" lon="5.0306">
        <ele>392.3</ele>
        <time>2022-10-16T07:47:53.000Z</time>
      </trkpt>
      <trkpt lat="44.74092" lon="5.03063">
        <ele>393.5</ele>
        <time>2022-10-16T07:48:02.000Z</time>
      </trkpt>
      <trkpt lat="44.74101" lon="5.03066">
        <ele>392.8</ele>
        <time>2022-10-16T07:48:11.000Z</time>
      </trkpt>
      <trkpt lat="44.74109" lon="5.03072">
        <ele>392.4</ele>
        <time>2022-10-16T07:48:19.000Z</time>
      </trkpt>
      <trkpt lat="44.74118" lon="5.03076">
        <ele>394.1</ele>
        <time>2022-10-16T07:48:28.000Z</time>
      </trkpt>
      <trkpt lat="44.74128" lon="5.03079">
        <ele>395.8</ele>
        <time>2022-10-16T07:48:40.000Z</time>
      </trkpt>
      <trkpt lat="44.74137" lon="5.03083">
        <ele>398</ele>
        <time>2022-10-16T07:48:50.000Z</time>
      </trkpt>
      <trkpt lat="44.74145" lon="5.03089">
        <ele>399</ele>
        <time>2022-10-16T07:48:57.000Z</time>
      </trkpt>
      <trkpt lat="44.74152" lon="5.03094">
        <ele>398.8</ele>
        <time>2022-10-16T07:49:19.000Z</time>
      </trkpt>
      <trkpt lat="44.74152" lon="5.03094">
        <ele>398.7</ele>
        <time>2022-10-16T07:49:21.000Z</time>
      </trkpt>
      <trkpt lat="44.74161" lon="5.03096">
        <ele>401.2</ele>
        <time>2022-10-16T07:49:37.000Z</time>
      </trkpt>
      <trkpt lat="44.74169" lon="5.03104">
        <ele>402.7</ele>
        <time>2022-10-16T07:49:48.000Z</time>
      </trkpt>
      <trkpt lat="44.74172" lon="5.03104">
        <ele>402.6</ele>
        <time>2022-10-16T07:50:00.000Z</time>
      </trkpt>
      <trkpt lat="44.74172" lon="5.03104">
        <ele>402.3</ele>
        <time>2022-10-16T07:50:03.000Z</time>
      </trkpt>
      <trkpt lat="44.74173" lon="5.03105">
        <ele>402.4</ele>
        <time>2022-10-16T07:50:05.000Z</time>
      </trkpt>
      <trkpt lat="44.74173" lon="5.03105">
        <ele>402.2</ele>
        <time>2022-10-16T07:50:06.000Z</time>
      </trkpt>
      <trkpt lat="44.74173" lon="5.03105">
        <ele>402.1</ele>
        <time>2022-10-16T07:50:08.000Z</time>
      </trkpt>
      <trkpt lat="44.74173" lon="5.03105">
        <ele>402.2</ele>
        <time>2022-10-16T07:50:10.000Z</time>
      </trkpt>
      <trkpt lat="44.74173" lon="5.03106">
        <ele>402.1</ele>
        <time>2022-10-16T07:50:12.000Z</time>
      </trkpt>
      <trkpt lat="44.74173" lon="5.03105">
        <ele>401.7</ele>
        <time>2022-10-16T07:50:14.000Z</time>
      </trkpt>
      <trkpt lat="44.74182" lon="5.03107">
        <ele>400.1</ele>
        <time>2022-10-16T07:50:31.000Z</time>
      </trkpt>
      <trkpt lat="44.74192" lon="5.0311">
        <ele>400.6</ele>
        <time>2022-10-16T07:50:40.000Z</time>
      </trkpt>
      <trkpt lat="44.74201" lon="5.03115">
        <ele>400.5</ele>
        <time>2022-10-16T07:50:50.000Z</time>
      </trkpt>
      <trkpt lat="44.7421" lon="5.03117">
        <ele>402.8</ele>
        <time>2022-10-16T07:51:00.000Z</time>
      </trkpt>
      <trkpt lat="44.7422" lon="5.03118">
        <ele>403.2</ele>
        <time>2022-10-16T07:51:09.000Z</time>
      </trkpt>
      <trkpt lat="44.74229" lon="5.03122">
        <ele>404.3</ele>
        <time>2022-10-16T07:51:22.000Z</time>
      </trkpt>
      <trkpt lat="44.74239" lon="5.03128">
        <ele>405.3</ele>
        <time>2022-10-16T07:51:33.000Z</time>
      </trkpt>
      <trkpt lat="44.74247" lon="5.03133">
        <ele>405.7</ele>
        <time>2022-10-16T07:51:39.000Z</time>
      </trkpt>
      <trkpt lat="44.74257" lon="5.03136">
        <ele>406.5</ele>
        <time>2022-10-16T07:51:46.000Z</time>
      </trkpt>
      <trkpt lat="44.74266" lon="5.03139">
        <ele>406.4</ele>
        <time>2022-10-16T07:51:55.000Z</time>
      </trkpt>
      <trkpt lat="44.74275" lon="5.03142">
        <ele>407.8</ele>
        <time>2022-10-16T07:52:05.000Z</time>
      </trkpt>
      <trkpt lat="44.74285" lon="5.03145">
        <ele>409.3</ele>
        <time>2022-10-16T07:52:14.000Z</time>
      </trkpt>
      <trkpt lat="44.74294" lon="5.0315">
        <ele>409.4</ele>
        <time>2022-10-16T07:52:22.000Z</time>
      </trkpt>
      <trkpt lat="44.74302" lon="5.03155">
        <ele>410.1</ele>
        <time>2022-10-16T07:52:30.000Z</time>
      </trkpt>
      <trkpt lat="44.7431" lon="5.03161">
        <ele>409.5</ele>
        <time>2022-10-16T07:52:38.000Z</time>
      </trkpt>
      <trkpt lat="44.7432" lon="5.03161">
        <ele>409.9</ele>
        <time>2022-10-16T07:52:50.000Z</time>
      </trkpt>
      <trkpt lat="44.74329" lon="5.03164">
        <ele>409.2</ele>
        <time>2022-10-16T07:53:02.000Z</time>
      </trkpt>
      <trkpt lat="44.74338" lon="5.03169">
        <ele>408.7</ele>
        <time>2022-10-16T07:53:12.000Z</time>
      </trkpt>
      <trkpt lat="44.74346" lon="5.03176">
        <ele>408.6</ele>
        <time>2022-10-16T07:53:22.000Z</time>
      </trkpt>
      <trkpt lat="44.74355" lon="5.0318">
        <ele>408.9</ele>
        <time>2022-10-16T07:53:33.000Z</time>
      </trkpt>
      <trkpt lat="44.74364" lon="5.03184">
        <ele>409</ele>
        <time>2022-10-16T07:53:41.000Z</time>
      </trkpt>
      <trkpt lat="44.74372" lon="5.0319">
        <ele>412.2</ele>
        <time>2022-10-16T07:53:52.000Z</time>
      </trkpt>
      <trkpt lat="44.74381" lon="5.03196">
        <ele>413.7</ele>
        <time>2022-10-16T07:54:02.000Z</time>
      </trkpt>
      <trkpt lat="44.7439" lon="5.032">
        <ele>413.8</ele>
        <time>2022-10-16T07:54:10.000Z</time>
      </trkpt>
      <trkpt lat="44.74398" lon="5.03206">
        <ele>415.3</ele>
        <time>2022-10-16T07:54:20.000Z</time>
      </trkpt>
      <trkpt lat="44.74407" lon="5.03211">
        <ele>415.7</ele>
        <time>2022-10-16T07:54:31.000Z</time>
      </trkpt>
      <trkpt lat="44.74416" lon="5.03215">
        <ele>416.7</ele>
        <time>2022-10-16T07:54:39.000Z</time>
      </trkpt>
      <trkpt lat="44.74425" lon="5.03219">
        <ele>416.7</ele>
        <time>2022-10-16T07:54:47.000Z</time>
      </trkpt>
      <trkpt lat="44.74434" lon="5.03221">
        <ele>415.8</ele>
        <time>2022-10-16T07:54:56.000Z</time>
      </trkpt>
      <trkpt lat="44.74445" lon="5.03221">
        <ele>416.3</ele>
        <time>2022-10-16T07:55:04.000Z</time>
      </trkpt>
      <trkpt lat="44.74451" lon="5.03231">
        <ele>416.2</ele>
        <time>2022-10-16T07:55:16.000Z</time>
      </trkpt>
      <trkpt lat="44.7446" lon="5.03237">
        <ele>416.5</ele>
        <time>2022-10-16T07:55:27.000Z</time>
      </trkpt>
      <trkpt lat="44.74469" lon="5.03243">
        <ele>416.2</ele>
        <time>2022-10-16T07:55:37.000Z</time>
      </trkpt>
      <trkpt lat="44.74478" lon="5.03246">
        <ele>417.5</ele>
        <time>2022-10-16T07:55:43.000Z</time>
      </trkpt>
      <trkpt lat="44.74487" lon="5.03251">
        <ele>419.3</ele>
        <time>2022-10-16T07:55:48.000Z</time>
      </trkpt>
      <trkpt lat="44.74491" lon="5.03255">
        <ele>421.5</ele>
        <time>2022-10-16T07:56:02.000Z</time>
      </trkpt>
      <trkpt lat="44.74491" lon="5.03255">
        <ele>421</ele>
        <time>2022-10-16T07:56:03.000Z</time>
      </trkpt>
      <trkpt lat="44.74492" lon="5.03255">
        <ele>420.7</ele>
        <time>2022-10-16T07:56:07.000Z</time>
      </trkpt>
      <trkpt lat="44.74492" lon="5.03255">
        <ele>420.7</ele>
        <time>2022-10-16T07:56:08.000Z</time>
      </trkpt>
      <trkpt lat="44.74492" lon="5.03254">
        <ele>420.6</ele>
        <time>2022-10-16T07:56:09.000Z</time>
      </trkpt>
      <trkpt lat="44.74492" lon="5.03254">
        <ele>421.4</ele>
        <time>2022-10-16T07:56:10.000Z</time>
      </trkpt>
      <trkpt lat="44.74493" lon="5.03254">
        <ele>420.1</ele>
        <time>2022-10-16T07:56:13.000Z</time>
      </trkpt>
      <trkpt lat="44.74493" lon="5.03254">
        <ele>420.3</ele>
        <time>2022-10-16T07:56:16.000Z</time>
      </trkpt>
      <trkpt lat="44.74493" lon="5.03254">
        <ele>420.3</ele>
        <time>2022-10-16T07:56:17.000Z</time>
      </trkpt>
      <trkpt lat="44.74493" lon="5.03254">
        <ele>420.4</ele>
        <time>2022-10-16T07:56:18.000Z</time>
      </trkpt>
      <trkpt lat="44.74494" lon="5.03254">
        <ele>420.3</ele>
        <time>2022-10-16T07:56:24.000Z</time>
      </trkpt>
      <trkpt lat="44.74494" lon="5.03254">
        <ele>420.3</ele>
        <time>2022-10-16T07:56:26.000Z</time>
      </trkpt>
      <trkpt lat="44.74494" lon="5.03254">
        <ele>420.4</ele>
        <time>2022-10-16T07:56:28.000Z</time>
      </trkpt>
      <trkpt lat="44.74494" lon="5.03254">
        <ele>420.3</ele>
        <time>2022-10-16T07:56:29.000Z</time>
      </trkpt>
      <trkpt lat="44.74495" lon="5.03254">
        <ele>419.9</ele>
        <time>2022-10-16T07:56:37.000Z</time>
      </trkpt>
      <trkpt lat="44.74495" lon="5.03254">
        <ele>419.6</ele>
        <time>2022-10-16T07:56:39.000Z</time>
      </trkpt>
      <trkpt lat="44.74495" lon="5.03254">
        <ele>419.7</ele>
        <time>2022-10-16T07:56:48.000Z</time>
      </trkpt>
      <trkpt lat="44.74495" lon="5.03254">
        <ele>419.6</ele>
        <time>2022-10-16T07:56:49.000Z</time>
      </trkpt>
      <trkpt lat="44.74495" lon="5.03253">
        <ele>419.3</ele>
        <time>2022-10-16T07:56:52.000Z</time>
      </trkpt>
      <trkpt lat="44.74495" lon="5.03253">
        <ele>419.2</ele>
        <time>2022-10-16T07:56:53.000Z</time>
      </trkpt>
      <trkpt lat="44.74495" lon="5.03253">
        <ele>419.1</ele>
        <time>2022-10-16T07:56:55.000Z</time>
      </trkpt>
      <trkpt lat="44.74495" lon="5.03253">
        <ele>419.2</ele>
        <time>2022-10-16T07:56:56.000Z</time>
      </trkpt>
      <trkpt lat="44.74495" lon="5.03253">
        <ele>419.4</ele>
        <time>2022-10-16T07:56:57.000Z</time>
      </trkpt>
      <trkpt lat="44.74496" lon="5.03253">
        <ele>419.4</ele>
        <time>2022-10-16T07:56:58.000Z</time>
      </trkpt>
      <trkpt lat="44.74496" lon="5.03253">
        <ele>419.5</ele>
        <time>2022-10-16T07:56:59.000Z</time>
      </trkpt>
      <trkpt lat="44.74495" lon="5.03253">
        <ele>419.5</ele>
        <time>2022-10-16T07:57:23.000Z</time>
      </trkpt>
      <trkpt lat="44.74495" lon="5.03253">
        <ele>419.3</ele>
        <time>2022-10-16T07:57:26.000Z</time>
      </trkpt>
      <trkpt lat="44.74495" lon="5.03253">
        <ele>419.3</ele>
        <time>2022-10-16T07:57:28.000Z</time>
      </trkpt>
      <trkpt lat="44.74495" lon="5.03253">
        <ele>419.4</ele>
        <time>2022-10-16T07:57:30.000Z</time>
      </trkpt>
      <trkpt lat="44.74495" lon="5.03252">
        <ele>419.3</ele>
        <time>2022-10-16T07:57:31.000Z</time>
      </trkpt>
      <trkpt lat="44.74495" lon="5.03252">
        <ele>419</ele>
        <time>2022-10-16T07:57:36.000Z</time>
      </trkpt>
      <trkpt lat="44.74495" lon="5.03251">
        <ele>418.8</ele>
        <time>2022-10-16T07:57:39.000Z</time>
      </trkpt>
      <trkpt lat="44.74495" lon="5.03251">
        <ele>418.4</ele>
        <time>2022-10-16T07:57:40.000Z</time>
      </trkpt>
      <trkpt lat="44.74495" lon="5.03252">
        <ele>418.6</ele>
        <time>2022-10-16T07:57:41.000Z</time>
      </trkpt>
      <trkpt lat="44.74495" lon="5.03252">
        <ele>418.9</ele>
        <time>2022-10-16T07:57:44.000Z</time>
      </trkpt>
      <trkpt lat="44.74495" lon="5.03252">
        <ele>419.1</ele>
        <time>2022-10-16T07:57:45.000Z</time>
      </trkpt>
      <trkpt lat="44.74495" lon="5.03252">
        <ele>419.5</ele>
        <time>2022-10-16T07:57:46.000Z</time>
      </trkpt>
      <trkpt lat="44.74495" lon="5.03252">
        <ele>419.1</ele>
        <time>2022-10-16T07:57:48.000Z</time>
      </trkpt>
      <trkpt lat="44.74495" lon="5.03252">
        <ele>418.9</ele>
        <time>2022-10-16T07:57:51.000Z</time>
      </trkpt>
      <trkpt lat="44.74495" lon="5.03253">
        <ele>418.7</ele>
        <time>2022-10-16T07:58:11.000Z</time>
      </trkpt>
      <trkpt lat="44.74495" lon="5.03253">
        <ele>418.8</ele>
        <time>2022-10-16T07:58:13.000Z</time>
      </trkpt>
      <trkpt lat="44.74495" lon="5.03253">
        <ele>418.9</ele>
        <time>2022-10-16T07:58:19.000Z</time>
      </trkpt>
      <trkpt lat="44.74495" lon="5.03253">
        <ele>419</ele>
        <time>2022-10-16T07:58:20.000Z</time>
      </trkpt>
      <trkpt lat="44.74495" lon="5.03253">
        <ele>418.7</ele>
        <time>2022-10-16T07:58:23.000Z</time>
      </trkpt>
      <trkpt lat="44.74494" lon="5.03254">
        <ele>419.7</ele>
        <time>2022-10-16T07:58:25.000Z</time>
      </trkpt>
      <trkpt lat="44.74495" lon="5.03254">
        <ele>419.1</ele>
        <time>2022-10-16T07:58:26.000Z</time>
      </trkpt>
      <trkpt lat="44.74495" lon="5.03254">
        <ele>419</ele>
        <time>2022-10-16T07:58:27.000Z</time>
      </trkpt>
      <trkpt lat="44.74495" lon="5.03254">
        <ele>419.3</ele>
        <time>2022-10-16T07:58:32.000Z</time>
      </trkpt>
      <trkpt lat="44.74495" lon="5.03254">
        <ele>419.2</ele>
        <time>2022-10-16T07:58:33.000Z</time>
      </trkpt>
      <trkpt lat="44.74495" lon="5.03254">
        <ele>419.1</ele>
        <time>2022-10-16T07:58:36.000Z</time>
      </trkpt>
      <trkpt lat="44.74495" lon="5.03254">
        <ele>419.1</ele>
        <time>2022-10-16T07:58:41.000Z</time>
      </trkpt>
      <trkpt lat="44.74495" lon="5.03254">
        <ele>418.7</ele>
        <time>2022-10-16T07:59:35.000Z</time>
      </trkpt>
      <trkpt lat="44.74495" lon="5.03254">
        <ele>418.9</ele>
        <time>2022-10-16T07:59:36.000Z</time>
      </trkpt>
      <trkpt lat="44.74496" lon="5.03256">
        <ele>396.8</ele>
        <time>2022-10-16T08:12:01.000Z</time>
      </trkpt>
      <trkpt lat="44.74495" lon="5.03255">
        <ele>398</ele>
        <time>2022-10-16T08:12:02.000Z</time>
      </trkpt>
      <trkpt lat="44.74494" lon="5.03254">
        <ele>396.9</ele>
        <time>2022-10-16T08:12:05.000Z</time>
      </trkpt>
      <trkpt lat="44.74494" lon="5.03254">
        <ele>396.9</ele>
        <time>2022-10-16T08:12:06.000Z</time>
      </trkpt>
      <trkpt lat="44.74494" lon="5.03254">
        <ele>396.8</ele>
        <time>2022-10-16T08:12:08.000Z</time>
      </trkpt>
      <trkpt lat="44.74494" lon="5.03254">
        <ele>396.8</ele>
        <time>2022-10-16T08:12:11.000Z</time>
      </trkpt>
      <trkpt lat="44.74493" lon="5.03253">
        <ele>396.8</ele>
        <time>2022-10-16T08:12:13.000Z</time>
      </trkpt>
      <trkpt lat="44.74493" lon="5.03253">
        <ele>396.8</ele>
        <time>2022-10-16T08:12:28.000Z</time>
      </trkpt>
      <trkpt lat="44.74493" lon="5.03253">
        <ele>396.8</ele>
        <time>2022-10-16T08:12:29.000Z</time>
      </trkpt>
      <trkpt lat="44.74493" lon="5.03253">
        <ele>397</ele>
        <time>2022-10-16T08:12:30.000Z</time>
      </trkpt>
      <trkpt lat="44.74493" lon="5.03253">
        <ele>397.2</ele>
        <time>2022-10-16T08:12:31.000Z</time>
      </trkpt>
      <trkpt lat="44.74494" lon="5.03253">
        <ele>396.3</ele>
        <time>2022-10-16T08:12:32.000Z</time>
      </trkpt>
      <trkpt lat="44.74494" lon="5.03253">
        <ele>397</ele>
        <time>2022-10-16T08:12:37.000Z</time>
      </trkpt>
      <trkpt lat="44.74494" lon="5.03252">
        <ele>396.9</ele>
        <time>2022-10-16T08:12:38.000Z</time>
      </trkpt>
      <trkpt lat="44.74493" lon="5.03253">
        <ele>397.7</ele>
        <time>2022-10-16T08:12:42.000Z</time>
      </trkpt>
      <trkpt lat="44.74493" lon="5.03252">
        <ele>396.8</ele>
        <time>2022-10-16T08:12:43.000Z</time>
      </trkpt>
      <trkpt lat="44.74493" lon="5.03252">
        <ele>396.6</ele>
        <time>2022-10-16T08:12:44.000Z</time>
      </trkpt>
      <trkpt lat="44.74493" lon="5.03252">
        <ele>397</ele>
        <time>2022-10-16T08:12:45.000Z</time>
      </trkpt>
      <trkpt lat="44.7449" lon="5.0325">
        <ele>395.1</ele>
        <time>2022-10-16T08:12:58.000Z</time>
      </trkpt>
      <trkpt lat="44.7449" lon="5.0325">
        <ele>394.6</ele>
        <time>2022-10-16T08:12:59.000Z</time>
      </trkpt>
      <trkpt lat="44.74487" lon="5.03249">
        <ele>394.3</ele>
        <time>2022-10-16T08:13:03.000Z</time>
      </trkpt>
      <trkpt lat="44.74487" lon="5.03248">
        <ele>394.1</ele>
        <time>2022-10-16T08:13:04.000Z</time>
      </trkpt>
      <trkpt lat="44.74478" lon="5.03242">
        <ele>393.1</ele>
        <time>2022-10-16T08:13:19.000Z</time>
      </trkpt>
      <trkpt lat="44.74469" lon="5.03241">
        <ele>392.8</ele>
        <time>2022-10-16T08:13:30.000Z</time>
      </trkpt>
      <trkpt lat="44.74459" lon="5.0324">
        <ele>392.6</ele>
        <time>2022-10-16T08:13:46.000Z</time>
      </trkpt>
      <trkpt lat="44.74452" lon="5.03231">
        <ele>392.8</ele>
        <time>2022-10-16T08:14:00.000Z</time>
      </trkpt>
      <trkpt lat="44.74444" lon="5.03227">
        <ele>392</ele>
        <time>2022-10-16T08:14:17.000Z</time>
      </trkpt>
      <trkpt lat="44.74434" lon="5.03225">
        <ele>393.9</ele>
        <time>2022-10-16T08:14:32.000Z</time>
      </trkpt>
      <trkpt lat="44.74425" lon="5.03223">
        <ele>391.6</ele>
        <time>2022-10-16T08:14:51.000Z</time>
      </trkpt>
      <trkpt lat="44.74418" lon="5.03215">
        <ele>391.2</ele>
        <time>2022-10-16T08:15:03.000Z</time>
      </trkpt>
      <trkpt lat="44.74408" lon="5.03209">
        <ele>390.6</ele>
        <time>2022-10-16T08:15:15.000Z</time>
      </trkpt>
      <trkpt lat="44.744" lon="5.03204">
        <ele>389.4</ele>
        <time>2022-10-16T08:15:28.000Z</time>
      </trkpt>
      <trkpt lat="44.74397" lon="5.03205">
        <ele>389.7</ele>
        <time>2022-10-16T08:15:35.000Z</time>
      </trkpt>
      <trkpt lat="44.74396" lon="5.03205">
        <ele>389.6</ele>
        <time>2022-10-16T08:15:37.000Z</time>
      </trkpt>
      <trkpt lat="44.74394" lon="5.03205">
        <ele>389.4</ele>
        <time>2022-10-16T08:15:48.000Z</time>
      </trkpt>
      <trkpt lat="44.74394" lon="5.03205">
        <ele>389.4</ele>
        <time>2022-10-16T08:15:49.000Z</time>
      </trkpt>
      <trkpt lat="44.74394" lon="5.03204">
        <ele>389.3</ele>
        <time>2022-10-16T08:15:50.000Z</time>
      </trkpt>
      <trkpt lat="44.74394" lon="5.03204">
        <ele>389.4</ele>
        <time>2022-10-16T08:15:51.000Z</time>
      </trkpt>
      <trkpt lat="44.74394" lon="5.03204">
        <ele>389.4</ele>
        <time>2022-10-16T08:15:53.000Z</time>
      </trkpt>
      <trkpt lat="44.74394" lon="5.03204">
        <ele>389.4</ele>
        <time>2022-10-16T08:15:54.000Z</time>
      </trkpt>
      <trkpt lat="44.74394" lon="5.03204">
        <ele>389.5</ele>
        <time>2022-10-16T08:15:55.000Z</time>
      </trkpt>
      <trkpt lat="44.74394" lon="5.03204">
        <ele>389.4</ele>
        <time>2022-10-16T08:15:57.000Z</time>
      </trkpt>
      <trkpt lat="44.74394" lon="5.03205">
        <ele>389.4</ele>
        <time>2022-10-16T08:15:59.000Z</time>
      </trkpt>
      <trkpt lat="44.74394" lon="5.03206">
        <ele>389.4</ele>
        <time>2022-10-16T08:16:01.000Z</time>
      </trkpt>
      <trkpt lat="44.74385" lon="5.03201">
        <ele>388.1</ele>
        <time>2022-10-16T08:16:14.000Z</time>
      </trkpt>
      <trkpt lat="44.74376" lon="5.03192">
        <ele>384.8</ele>
        <time>2022-10-16T08:16:33.000Z</time>
      </trkpt>
      <trkpt lat="44.74368" lon="5.03187">
        <ele>384.7</ele>
        <time>2022-10-16T08:16:42.000Z</time>
      </trkpt>
      <trkpt lat="44.74358" lon="5.03181">
        <ele>384.4</ele>
        <time>2022-10-16T08:16:54.000Z</time>
      </trkpt>
      <trkpt lat="44.74349" lon="5.03177">
        <ele>383.7</ele>
        <time>2022-10-16T08:17:03.000Z</time>
      </trkpt>
      <trkpt lat="44.74339" lon="5.0317">
        <ele>384.6</ele>
        <time>2022-10-16T08:17:13.000Z</time>
      </trkpt>
      <trkpt lat="44.7433" lon="5.03169">
        <ele>384.9</ele>
        <time>2022-10-16T08:17:21.000Z</time>
      </trkpt>
      <trkpt lat="44.74321" lon="5.03166">
        <ele>385.1</ele>
        <time>2022-10-16T08:17:32.000Z</time>
      </trkpt>
      <trkpt lat="44.74321" lon="5.03166">
        <ele>385.4</ele>
        <time>2022-10-16T08:17:33.000Z</time>
      </trkpt>
      <trkpt lat="44.74311" lon="5.0316">
        <ele>385.5</ele>
        <time>2022-10-16T08:17:43.000Z</time>
      </trkpt>
      <trkpt lat="44.74304" lon="5.03151">
        <ele>384.3</ele>
        <time>2022-10-16T08:17:53.000Z</time>
      </trkpt>
      <trkpt lat="44.74294" lon="5.03145">
        <ele>382.2</ele>
        <time>2022-10-16T08:18:03.000Z</time>
      </trkpt>
      <trkpt lat="44.74285" lon="5.03142">
        <ele>381.2</ele>
        <time>2022-10-16T08:18:16.000Z</time>
      </trkpt>
      <trkpt lat="44.74276" lon="5.03143">
        <ele>380.5</ele>
        <time>2022-10-16T08:18:27.000Z</time>
      </trkpt>
      <trkpt lat="44.74266" lon="5.03142">
        <ele>380.4</ele>
        <time>2022-10-16T08:18:37.000Z</time>
      </trkpt>
      <trkpt lat="44.74257" lon="5.03146">
        <ele>379.6</ele>
        <time>2022-10-16T08:18:49.000Z</time>
      </trkpt>
      <trkpt lat="44.74249" lon="5.03153">
        <ele>380.7</ele>
        <time>2022-10-16T08:19:08.000Z</time>
      </trkpt>
      <trkpt lat="44.74249" lon="5.03155">
        <ele>380.8</ele>
        <time>2022-10-16T08:19:15.000Z</time>
      </trkpt>
      <trkpt lat="44.74249" lon="5.03156">
        <ele>380.7</ele>
        <time>2022-10-16T08:19:16.000Z</time>
      </trkpt>
      <trkpt lat="44.74245" lon="5.03154">
        <ele>381.2</ele>
        <time>2022-10-16T08:19:33.000Z</time>
      </trkpt>
      <trkpt lat="44.74246" lon="5.03155">
        <ele>381.1</ele>
        <time>2022-10-16T08:19:34.000Z</time>
      </trkpt>
      <trkpt lat="44.74241" lon="5.03151">
        <ele>379.2</ele>
        <time>2022-10-16T08:19:51.000Z</time>
      </trkpt>
      <trkpt lat="44.74241" lon="5.03152">
        <ele>379</ele>
        <time>2022-10-16T08:19:52.000Z</time>
      </trkpt>
      <trkpt lat="44.74236" lon="5.0314">
        <ele>378.8</ele>
        <time>2022-10-16T08:20:12.000Z</time>
      </trkpt>
      <trkpt lat="44.7423" lon="5.03131">
        <ele>378.2</ele>
        <time>2022-10-16T08:20:23.000Z</time>
      </trkpt>
      <trkpt lat="44.74226" lon="5.0313">
        <ele>377.4</ele>
        <time>2022-10-16T08:20:30.000Z</time>
      </trkpt>
      <trkpt lat="44.74226" lon="5.03129">
        <ele>377.7</ele>
        <time>2022-10-16T08:20:31.000Z</time>
      </trkpt>
      <trkpt lat="44.74219" lon="5.03126">
        <ele>377.2</ele>
        <time>2022-10-16T08:20:43.000Z</time>
      </trkpt>
      <trkpt lat="44.74219" lon="5.03126">
        <ele>377.3</ele>
        <time>2022-10-16T08:20:44.000Z</time>
      </trkpt>
      <trkpt lat="44.7421" lon="5.0312">
        <ele>376.6</ele>
        <time>2022-10-16T08:20:56.000Z</time>
      </trkpt>
      <trkpt lat="44.74202" lon="5.03114">
        <ele>375.7</ele>
        <time>2022-10-16T08:21:08.000Z</time>
      </trkpt>
      <trkpt lat="44.74192" lon="5.03111">
        <ele>376.6</ele>
        <time>2022-10-16T08:21:17.000Z</time>
      </trkpt>
      <trkpt lat="44.74183" lon="5.03109">
        <ele>377.7</ele>
        <time>2022-10-16T08:21:25.000Z</time>
      </trkpt>
      <trkpt lat="44.74175" lon="5.03102">
        <ele>375.9</ele>
        <time>2022-10-16T08:21:36.000Z</time>
      </trkpt>
      <trkpt lat="44.74165" lon="5.031">
        <ele>374.3</ele>
        <time>2022-10-16T08:21:46.000Z</time>
      </trkpt>
      <trkpt lat="44.74156" lon="5.03095">
        <ele>373.4</ele>
        <time>2022-10-16T08:21:55.000Z</time>
      </trkpt>
      <trkpt lat="44.74148" lon="5.03087">
        <ele>371.7</ele>
        <time>2022-10-16T08:22:07.000Z</time>
      </trkpt>
      <trkpt lat="44.74139" lon="5.03084">
        <ele>368.3</ele>
        <time>2022-10-16T08:22:22.000Z</time>
      </trkpt>
      <trkpt lat="44.74131" lon="5.03081">
        <ele>367</ele>
        <time>2022-10-16T08:22:31.000Z</time>
      </trkpt>
      <trkpt lat="44.74122" lon="5.03074">
        <ele>368.7</ele>
        <time>2022-10-16T08:22:44.000Z</time>
      </trkpt>
      <trkpt lat="44.74113" lon="5.03067">
        <ele>367.1</ele>
        <time>2022-10-16T08:22:56.000Z</time>
      </trkpt>
      <trkpt lat="44.74104" lon="5.03066">
        <ele>368</ele>
        <time>2022-10-16T08:23:05.000Z</time>
      </trkpt>
      <trkpt lat="44.74099" lon="5.03063">
        <ele>367.8</ele>
        <time>2022-10-16T08:23:10.000Z</time>
      </trkpt>
      <trkpt lat="44.74098" lon="5.03062">
        <ele>367.5</ele>
        <time>2022-10-16T08:23:11.000Z</time>
      </trkpt>
      <trkpt lat="44.74088" lon="5.03059">
        <ele>368.6</ele>
        <time>2022-10-16T08:23:18.000Z</time>
      </trkpt>
      <trkpt lat="44.74079" lon="5.03059">
        <ele>368.6</ele>
        <time>2022-10-16T08:23:27.000Z</time>
      </trkpt>
      <trkpt lat="44.7407" lon="5.03057">
        <ele>369</ele>
        <time>2022-10-16T08:23:35.000Z</time>
      </trkpt>
      <trkpt lat="44.74061" lon="5.03056">
        <ele>369.4</ele>
        <time>2022-10-16T08:23:45.000Z</time>
      </trkpt>
      <trkpt lat="44.74051" lon="5.03055">
        <ele>369.1</ele>
        <time>2022-10-16T08:23:53.000Z</time>
      </trkpt>
      <trkpt lat="44.74042" lon="5.03054">
        <ele>369.8</ele>
        <time>2022-10-16T08:24:01.000Z</time>
      </trkpt>
      <trkpt lat="44.74033" lon="5.03051">
        <ele>369.2</ele>
        <time>2022-10-16T08:24:08.000Z</time>
      </trkpt>
      <trkpt lat="44.74023" lon="5.03049">
        <ele>369.5</ele>
        <time>2022-10-16T08:24:14.000Z</time>
      </trkpt>
      <trkpt lat="44.74017" lon="5.03048">
        <ele>369.6</ele>
        <time>2022-10-16T08:24:20.000Z</time>
      </trkpt>
      <trkpt lat="44.74016" lon="5.03047">
        <ele>369.2</ele>
        <time>2022-10-16T08:24:21.000Z</time>
      </trkpt>
      <trkpt lat="44.74007" lon="5.03044">
        <ele>370.4</ele>
        <time>2022-10-16T08:24:27.000Z</time>
      </trkpt>
      <trkpt lat="44.73997" lon="5.03041">
        <ele>370.8</ele>
        <time>2022-10-16T08:24:34.000Z</time>
      </trkpt>
      <trkpt lat="44.73988" lon="5.03039">
        <ele>372.3</ele>
        <time>2022-10-16T08:24:42.000Z</time>
      </trkpt>
      <trkpt lat="44.73978" lon="5.03037">
        <ele>372</ele>
        <time>2022-10-16T08:24:51.000Z</time>
      </trkpt>
      <trkpt lat="44.73969" lon="5.03032">
        <ele>372.7</ele>
        <time>2022-10-16T08:25:00.000Z</time>
      </trkpt>
      <trkpt lat="44.7396" lon="5.03026">
        <ele>373.8</ele>
        <time>2022-10-16T08:25:10.000Z</time>
      </trkpt>
      <trkpt lat="44.7395" lon="5.03024">
        <ele>373.2</ele>
        <time>2022-10-16T08:25:19.000Z</time>
      </trkpt>
      <trkpt lat="44.73941" lon="5.03026">
        <ele>373.7</ele>
        <time>2022-10-16T08:25:28.000Z</time>
      </trkpt>
      <trkpt lat="44.73931" lon="5.03025">
        <ele>373.6</ele>
        <time>2022-10-16T08:25:37.000Z</time>
      </trkpt>
      <trkpt lat="44.73921" lon="5.03021">
        <ele>373.9</ele>
        <time>2022-10-16T08:25:43.000Z</time>
      </trkpt>
      <trkpt lat="44.73913" lon="5.03015">
        <ele>373.3</ele>
        <time>2022-10-16T08:25:50.000Z</time>
      </trkpt>
      <trkpt lat="44.73905" lon="5.03011">
        <ele>373.3</ele>
        <time>2022-10-16T08:25:58.000Z</time>
      </trkpt>
      <trkpt lat="44.73897" lon="5.03005">
        <ele>371.5</ele>
        <time>2022-10-16T08:26:08.000Z</time>
      </trkpt>
      <trkpt lat="44.73888" lon="5.02999">
        <ele>369.3</ele>
        <time>2022-10-16T08:26:20.000Z</time>
      </trkpt>
      <trkpt lat="44.73879" lon="5.02993">
        <ele>369.6</ele>
        <time>2022-10-16T08:26:26.000Z</time>
      </trkpt>
      <trkpt lat="44.7387" lon="5.02987">
        <ele>369.6</ele>
        <time>2022-10-16T08:26:32.000Z</time>
      </trkpt>
      <trkpt lat="44.73862" lon="5.02982">
        <ele>368.8</ele>
        <time>2022-10-16T08:26:40.000Z</time>
      </trkpt>
      <trkpt lat="44.73853" lon="5.0298">
        <ele>367.9</ele>
        <time>2022-10-16T08:26:50.000Z</time>
      </trkpt>
      <trkpt lat="44.73843" lon="5.02976">
        <ele>368.1</ele>
        <time>2022-10-16T08:26:56.000Z</time>
      </trkpt>
      <trkpt lat="44.73834" lon="5.02973">
        <ele>367.6</ele>
        <time>2022-10-16T08:27:02.000Z</time>
      </trkpt>
      <trkpt lat="44.73825" lon="5.02967">
        <ele>366.6</ele>
        <time>2022-10-16T08:27:09.000Z</time>
      </trkpt>
      <trkpt lat="44.73815" lon="5.02966">
        <ele>365.2</ele>
        <time>2022-10-16T08:27:17.000Z</time>
      </trkpt>
      <trkpt lat="44.73806" lon="5.02966">
        <ele>363.4</ele>
        <time>2022-10-16T08:27:27.000Z</time>
      </trkpt>
      <trkpt lat="44.738" lon="5.02962">
        <ele>363.2</ele>
        <time>2022-10-16T08:27:42.000Z</time>
      </trkpt>
      <trkpt lat="44.738" lon="5.02962">
        <ele>363.2</ele>
        <time>2022-10-16T08:27:43.000Z</time>
      </trkpt>
      <trkpt lat="44.73799" lon="5.02962">
        <ele>363.3</ele>
        <time>2022-10-16T08:27:47.000Z</time>
      </trkpt>
      <trkpt lat="44.73799" lon="5.02962">
        <ele>363.1</ele>
        <time>2022-10-16T08:27:53.000Z</time>
      </trkpt>
      <trkpt lat="44.73799" lon="5.02962">
        <ele>363.3</ele>
        <time>2022-10-16T08:27:54.000Z</time>
      </trkpt>
      <trkpt lat="44.73799" lon="5.02963">
        <ele>363.2</ele>
        <time>2022-10-16T08:27:55.000Z</time>
      </trkpt>
      <trkpt lat="44.7379" lon="5.02958">
        <ele>361.3</ele>
        <time>2022-10-16T08:28:05.000Z</time>
      </trkpt>
      <trkpt lat="44.73781" lon="5.02955">
        <ele>359.1</ele>
        <time>2022-10-16T08:28:15.000Z</time>
      </trkpt>
      <trkpt lat="44.73772" lon="5.02951">
        <ele>359.1</ele>
        <time>2022-10-16T08:28:23.000Z</time>
      </trkpt>
      <trkpt lat="44.73763" lon="5.02954">
        <ele>355.8</ele>
        <time>2022-10-16T08:28:34.000Z</time>
      </trkpt>
      <trkpt lat="44.73754" lon="5.02952">
        <ele>353.3</ele>
        <time>2022-10-16T08:28:42.000Z</time>
      </trkpt>
      <trkpt lat="44.73744" lon="5.02951">
        <ele>351.6</ele>
        <time>2022-10-16T08:28:53.000Z</time>
      </trkpt>
      <trkpt lat="44.73734" lon="5.02948">
        <ele>349.3</ele>
        <time>2022-10-16T08:29:02.000Z</time>
      </trkpt>
      <trkpt lat="44.73726" lon="5.02942">
        <ele>346.6</ele>
        <time>2022-10-16T08:29:11.000Z</time>
      </trkpt>
      <trkpt lat="44.73717" lon="5.0294">
        <ele>345.2</ele>
        <time>2022-10-16T08:29:20.000Z</time>
      </trkpt>
      <trkpt lat="44.73708" lon="5.02936">
        <ele>342.9</ele>
        <time>2022-10-16T08:29:30.000Z</time>
      </trkpt>
      <trkpt lat="44.73702" lon="5.02936">
        <ele>341.2</ele>
        <time>2022-10-16T08:29:42.000Z</time>
      </trkpt>
      <trkpt lat="44.73702" lon="5.02936">
        <ele>341.3</ele>
        <time>2022-10-16T08:29:43.000Z</time>
      </trkpt>
      <trkpt lat="44.737" lon="5.02935">
        <ele>341.3</ele>
        <time>2022-10-16T08:29:49.000Z</time>
      </trkpt>
      <trkpt lat="44.737" lon="5.02936">
        <ele>341.5</ele>
        <time>2022-10-16T08:29:50.000Z</time>
      </trkpt>
      <trkpt lat="44.73692" lon="5.02928">
        <ele>340.6</ele>
        <time>2022-10-16T08:30:08.000Z</time>
      </trkpt>
      <trkpt lat="44.73684" lon="5.02921">
        <ele>340</ele>
        <time>2022-10-16T08:30:17.000Z</time>
      </trkpt>
      <trkpt lat="44.73678" lon="5.02912">
        <ele>341</ele>
        <time>2022-10-16T08:30:27.000Z</time>
      </trkpt>
      <trkpt lat="44.73678" lon="5.02911">
        <ele>341.6</ele>
        <time>2022-10-16T08:30:28.000Z</time>
      </trkpt>
      <trkpt lat="44.73671" lon="5.02901">
        <ele>340.4</ele>
        <time>2022-10-16T08:30:37.000Z</time>
      </trkpt>
      <trkpt lat="44.73668" lon="5.02889">
        <ele>340.3</ele>
        <time>2022-10-16T08:30:47.000Z</time>
      </trkpt>
      <trkpt lat="44.73664" lon="5.0288">
        <ele>340.4</ele>
        <time>2022-10-16T08:30:56.000Z</time>
      </trkpt>
      <trkpt lat="44.73663" lon="5.0288">
        <ele>340.3</ele>
        <time>2022-10-16T08:30:57.000Z</time>
      </trkpt>
      <trkpt lat="44.73654" lon="5.02873">
        <ele>339.8</ele>
        <time>2022-10-16T08:31:06.000Z</time>
      </trkpt>
      <trkpt lat="44.73654" lon="5.02873">
        <ele>339</ele>
        <time>2022-10-16T08:31:09.000Z</time>
      </trkpt>
      <trkpt lat="44.73654" lon="5.02875">
        <ele>338.4</ele>
        <time>2022-10-16T08:31:10.000Z</time>
      </trkpt>
      <trkpt lat="44.73645" lon="5.0287">
        <ele>337.6</ele>
        <time>2022-10-16T08:31:20.000Z</time>
      </trkpt>
      <trkpt lat="44.73634" lon="5.02867">
        <ele>336.1</ele>
        <time>2022-10-16T08:31:30.000Z</time>
      </trkpt>
      <trkpt lat="44.73625" lon="5.02864">
        <ele>335.4</ele>
        <time>2022-10-16T08:31:38.000Z</time>
      </trkpt>
      <trkpt lat="44.73616" lon="5.0286">
        <ele>333.4</ele>
        <time>2022-10-16T08:31:48.000Z</time>
      </trkpt>
      <trkpt lat="44.73608" lon="5.02855">
        <ele>332.1</ele>
        <time>2022-10-16T08:31:54.000Z</time>
      </trkpt>
      <trkpt lat="44.73598" lon="5.02853">
        <ele>330.7</ele>
        <time>2022-10-16T08:32:03.000Z</time>
      </trkpt>
      <trkpt lat="44.73589" lon="5.02848">
        <ele>330.1</ele>
        <time>2022-10-16T08:32:11.000Z</time>
      </trkpt>
      <trkpt lat="44.7358" lon="5.02841">
        <ele>329.5</ele>
        <time>2022-10-16T08:32:20.000Z</time>
      </trkpt>
      <trkpt lat="44.73572" lon="5.02833">
        <ele>328.3</ele>
        <time>2022-10-16T08:32:26.000Z</time>
      </trkpt>
      <trkpt lat="44.73563" lon="5.0283">
        <ele>326.7</ele>
        <time>2022-10-16T08:32:36.000Z</time>
      </trkpt>
      <trkpt lat="44.73556" lon="5.02822">
        <ele>327.4</ele>
        <time>2022-10-16T08:32:43.000Z</time>
      </trkpt>
      <trkpt lat="44.73547" lon="5.02816">
        <ele>325.4</ele>
        <time>2022-10-16T08:32:50.000Z</time>
      </trkpt>
      <trkpt lat="44.73538" lon="5.02809">
        <ele>326</ele>
        <time>2022-10-16T08:32:57.000Z</time>
      </trkpt>
      <trkpt lat="44.73532" lon="5.028">
        <ele>325.9</ele>
        <time>2022-10-16T08:33:04.000Z</time>
      </trkpt>
      <trkpt lat="44.73523" lon="5.02794">
        <ele>326.5</ele>
        <time>2022-10-16T08:33:12.000Z</time>
      </trkpt>
      <trkpt lat="44.73515" lon="5.02785">
        <ele>326.9</ele>
        <time>2022-10-16T08:33:20.000Z</time>
      </trkpt>
      <trkpt lat="44.73507" lon="5.02777">
        <ele>326.4</ele>
        <time>2022-10-16T08:33:28.000Z</time>
      </trkpt>
      <trkpt lat="44.73499" lon="5.02769">
        <ele>326.2</ele>
        <time>2022-10-16T08:33:37.000Z</time>
      </trkpt>
      <trkpt lat="44.7349" lon="5.02762">
        <ele>325.4</ele>
        <time>2022-10-16T08:33:43.000Z</time>
      </trkpt>
      <trkpt lat="44.73482" lon="5.02754">
        <ele>324.8</ele>
        <time>2022-10-16T08:33:49.000Z</time>
      </trkpt>
      <trkpt lat="44.73473" lon="5.02746">
        <ele>323</ele>
        <time>2022-10-16T08:33:58.000Z</time>
      </trkpt>
      <trkpt lat="44.73466" lon="5.02737">
        <ele>321.2</ele>
        <time>2022-10-16T08:34:07.000Z</time>
      </trkpt>
      <trkpt lat="44.73457" lon="5.02731">
        <ele>320.1</ele>
        <time>2022-10-16T08:34:14.000Z</time>
      </trkpt>
      <trkpt lat="44.73449" lon="5.02725">
        <ele>318.8</ele>
        <time>2022-10-16T08:34:27.000Z</time>
      </trkpt>
      <trkpt lat="44.73441" lon="5.02716">
        <ele>317</ele>
        <time>2022-10-16T08:34:38.000Z</time>
      </trkpt>
      <trkpt lat="44.73435" lon="5.02707">
        <ele>315.2</ele>
        <time>2022-10-16T08:34:46.000Z</time>
      </trkpt>
      <trkpt lat="44.73426" lon="5.027">
        <ele>313.5</ele>
        <time>2022-10-16T08:34:55.000Z</time>
      </trkpt>
      <trkpt lat="44.73419" lon="5.02691">
        <ele>311</ele>
        <time>2022-10-16T08:35:06.000Z</time>
      </trkpt>
      <trkpt lat="44.73412" lon="5.02682">
        <ele>308.4</ele>
        <time>2022-10-16T08:35:16.000Z</time>
      </trkpt>
      <trkpt lat="44.73405" lon="5.02672">
        <ele>306.4</ele>
        <time>2022-10-16T08:35:26.000Z</time>
      </trkpt>
      <trkpt lat="44.73398" lon="5.02663">
        <ele>304.6</ele>
        <time>2022-10-16T08:35:37.000Z</time>
      </trkpt>
      <trkpt lat="44.7339" lon="5.02654">
        <ele>303.3</ele>
        <time>2022-10-16T08:35:46.000Z</time>
      </trkpt>
      <trkpt lat="44.73382" lon="5.02648">
        <ele>301.3</ele>
        <time>2022-10-16T08:35:53.000Z</time>
      </trkpt>
      <trkpt lat="44.73376" lon="5.02639">
        <ele>299.6</ele>
        <time>2022-10-16T08:36:02.000Z</time>
      </trkpt>
      <trkpt lat="44.73368" lon="5.02633">
        <ele>298.9</ele>
        <time>2022-10-16T08:36:10.000Z</time>
      </trkpt>
      <trkpt lat="44.73359" lon="5.02625">
        <ele>297.3</ele>
        <time>2022-10-16T08:36:19.000Z</time>
      </trkpt>
      <trkpt lat="44.73352" lon="5.02616">
        <ele>296.5</ele>
        <time>2022-10-16T08:36:27.000Z</time>
      </trkpt>
      <trkpt lat="44.73344" lon="5.0261">
        <ele>295.5</ele>
        <time>2022-10-16T08:36:35.000Z</time>
      </trkpt>
      <trkpt lat="44.73336" lon="5.02601">
        <ele>295.4</ele>
        <time>2022-10-16T08:36:42.000Z</time>
      </trkpt>
      <trkpt lat="44.73328" lon="5.02596">
        <ele>295.2</ele>
        <time>2022-10-16T08:36:50.000Z</time>
      </trkpt>
      <trkpt lat="44.73321" lon="5.02588">
        <ele>293.3</ele>
        <time>2022-10-16T08:36:59.000Z</time>
      </trkpt>
      <trkpt lat="44.73313" lon="5.02579">
        <ele>292.3</ele>
        <time>2022-10-16T08:37:06.000Z</time>
      </trkpt>
      <trkpt lat="44.73305" lon="5.02574">
        <ele>291.9</ele>
        <time>2022-10-16T08:37:15.000Z</time>
      </trkpt>
      <trkpt lat="44.73299" lon="5.02568">
        <ele>289.7</ele>
        <time>2022-10-16T08:37:24.000Z</time>
      </trkpt>
      <trkpt lat="44.73299" lon="5.02568">
        <ele>289.7</ele>
        <time>2022-10-16T08:37:25.000Z</time>
      </trkpt>
      <trkpt lat="44.73289" lon="5.02568">
        <ele>290.5</ele>
        <time>2022-10-16T08:37:38.000Z</time>
      </trkpt>
      <trkpt lat="44.7328" lon="5.02575">
        <ele>288.9</ele>
        <time>2022-10-16T08:37:52.000Z</time>
      </trkpt>
      <trkpt lat="44.73277" lon="5.02578">
        <ele>287.6</ele>
        <time>2022-10-16T08:37:57.000Z</time>
      </trkpt>
      <trkpt lat="44.73277" lon="5.02577">
        <ele>287.6</ele>
        <time>2022-10-16T08:37:58.000Z</time>
      </trkpt>
      <trkpt lat="44.73268" lon="5.02581">
        <ele>284.9</ele>
        <time>2022-10-16T08:38:10.000Z</time>
      </trkpt>
      <trkpt lat="44.73259" lon="5.02588">
        <ele>282.9</ele>
        <time>2022-10-16T08:38:22.000Z</time>
      </trkpt>
      <trkpt lat="44.73256" lon="5.02588">
        <ele>281.3</ele>
        <time>2022-10-16T08:38:30.000Z</time>
      </trkpt>
      <trkpt lat="44.73256" lon="5.02588">
        <ele>282</ele>
        <time>2022-10-16T08:38:31.000Z</time>
      </trkpt>
      <trkpt lat="44.73246" lon="5.02585">
        <ele>281.3</ele>
        <time>2022-10-16T08:38:47.000Z</time>
      </trkpt>
      <trkpt lat="44.73238" lon="5.02578">
        <ele>279.9</ele>
        <time>2022-10-16T08:38:56.000Z</time>
      </trkpt>
      <trkpt lat="44.73229" lon="5.02575">
        <ele>279.4</ele>
        <time>2022-10-16T08:39:12.000Z</time>
      </trkpt>
      <trkpt lat="44.73228" lon="5.02575">
        <ele>278.9</ele>
        <time>2022-10-16T08:39:19.000Z</time>
      </trkpt>
      <trkpt lat="44.73228" lon="5.02576">
        <ele>278.9</ele>
        <time>2022-10-16T08:39:20.000Z</time>
      </trkpt>
      <trkpt lat="44.73227" lon="5.02577">
        <ele>279.3</ele>
        <time>2022-10-16T08:39:22.000Z</time>
      </trkpt>
      <trkpt lat="44.73227" lon="5.02577">
        <ele>279.1</ele>
        <time>2022-10-16T08:39:23.000Z</time>
      </trkpt>
      <trkpt lat="44.73227" lon="5.02577">
        <ele>279.3</ele>
        <time>2022-10-16T08:39:24.000Z</time>
      </trkpt>
      <trkpt lat="44.73227" lon="5.02577">
        <ele>279.2</ele>
        <time>2022-10-16T08:39:26.000Z</time>
      </trkpt>
      <trkpt lat="44.73226" lon="5.02577">
        <ele>279.3</ele>
        <time>2022-10-16T08:39:30.000Z</time>
      </trkpt>
      <trkpt lat="44.73226" lon="5.02578">
        <ele>279.4</ele>
        <time>2022-10-16T08:39:31.000Z</time>
      </trkpt>
      <trkpt lat="44.73226" lon="5.02577">
        <ele>279.3</ele>
        <time>2022-10-16T08:39:35.000Z</time>
      </trkpt>
      <trkpt lat="44.73226" lon="5.02577">
        <ele>279.3</ele>
        <time>2022-10-16T08:39:36.000Z</time>
      </trkpt>
      <trkpt lat="44.73226" lon="5.02577">
        <ele>279.2</ele>
        <time>2022-10-16T08:39:37.000Z</time>
      </trkpt>
      <trkpt lat="44.73226" lon="5.02577">
        <ele>279.2</ele>
        <time>2022-10-16T08:39:38.000Z</time>
      </trkpt>
      <trkpt lat="44.73226" lon="5.02578">
        <ele>279.2</ele>
        <time>2022-10-16T08:39:39.000Z</time>
      </trkpt>
      <trkpt lat="44.73226" lon="5.02577">
        <ele>279.4</ele>
        <time>2022-10-16T08:39:41.000Z</time>
      </trkpt>
      <trkpt lat="44.73225" lon="5.02576">
        <ele>279.8</ele>
        <time>2022-10-16T08:39:47.000Z</time>
      </trkpt>
      <trkpt lat="44.73225" lon="5.02576">
        <ele>279.7</ele>
        <time>2022-10-16T08:39:48.000Z</time>
      </trkpt>
      <trkpt lat="44.73225" lon="5.02576">
        <ele>279.8</ele>
        <time>2022-10-16T08:39:49.000Z</time>
      </trkpt>
      <trkpt lat="44.73225" lon="5.02575">
        <ele>279.7</ele>
        <time>2022-10-16T08:39:50.000Z</time>
      </trkpt>
      <trkpt lat="44.73217" lon="5.02568">
        <ele>279.1</ele>
        <time>2022-10-16T08:40:03.000Z</time>
      </trkpt>
      <trkpt lat="44.73209" lon="5.02563">
        <ele>277.3</ele>
        <time>2022-10-16T08:40:13.000Z</time>
      </trkpt>
      <trkpt lat="44.732" lon="5.02562">
        <ele>274.5</ele>
        <time>2022-10-16T08:40:26.000Z</time>
      </trkpt>
      <trkpt lat="44.73191" lon="5.02556">
        <ele>273.3</ele>
        <time>2022-10-16T08:40:37.000Z</time>
      </trkpt>
      <trkpt lat="44.73183" lon="5.02548">
        <ele>271</ele>
        <time>2022-10-16T08:40:46.000Z</time>
      </trkpt>
      <trkpt lat="44.73174" lon="5.02541">
        <ele>269.5</ele>
        <time>2022-10-16T08:41:02.000Z</time>
      </trkpt>
      <trkpt lat="44.73172" lon="5.02537">
        <ele>269.1</ele>
        <time>2022-10-16T08:41:12.000Z</time>
      </trkpt>
      <trkpt lat="44.73171" lon="5.02537">
        <ele>269</ele>
        <time>2022-10-16T08:41:14.000Z</time>
      </trkpt>
      <trkpt lat="44.73171" lon="5.02536">
        <ele>268.9</ele>
        <time>2022-10-16T08:41:16.000Z</time>
      </trkpt>
      <trkpt lat="44.73171" lon="5.02536">
        <ele>268.6</ele>
        <time>2022-10-16T08:41:17.000Z</time>
      </trkpt>
      <trkpt lat="44.73163" lon="5.02528">
        <ele>266.5</ele>
        <time>2022-10-16T08:41:28.000Z</time>
      </trkpt>
      <trkpt lat="44.73156" lon="5.02521">
        <ele>264.9</ele>
        <time>2022-10-16T08:41:38.000Z</time>
      </trkpt>
      <trkpt lat="44.73147" lon="5.02515">
        <ele>260.6</ele>
        <time>2022-10-16T08:41:51.000Z</time>
      </trkpt>
      <trkpt lat="44.7314" lon="5.02507">
        <ele>259.9</ele>
        <time>2022-10-16T08:42:02.000Z</time>
      </trkpt>
      <trkpt lat="44.73132" lon="5.02499">
        <ele>258.4</ele>
        <time>2022-10-16T08:42:09.000Z</time>
      </trkpt>
      <trkpt lat="44.73123" lon="5.02505">
        <ele>254.9</ele>
        <time>2022-10-16T08:42:26.000Z</time>
      </trkpt>
      <trkpt lat="44.73121" lon="5.02492">
        <ele>256.5</ele>
        <time>2022-10-16T08:43:02.000Z</time>
      </trkpt>
      <trkpt lat="44.73113" lon="5.02482">
        <ele>255.4</ele>
        <time>2022-10-16T08:43:12.000Z</time>
      </trkpt>
      <trkpt lat="44.73107" lon="5.02472">
        <ele>254.5</ele>
        <time>2022-10-16T08:43:19.000Z</time>
      </trkpt>
      <trkpt lat="44.73098" lon="5.02465">
        <ele>253.2</ele>
        <time>2022-10-16T08:43:27.000Z</time>
      </trkpt>
      <trkpt lat="44.73091" lon="5.02456">
        <ele>251.9</ele>
        <time>2022-10-16T08:43:34.000Z</time>
      </trkpt>
      <trkpt lat="44.73082" lon="5.02453">
        <ele>249.7</ele>
        <time>2022-10-16T08:43:43.000Z</time>
      </trkpt>
      <trkpt lat="44.73073" lon="5.02448">
        <ele>246.9</ele>
        <time>2022-10-16T08:43:52.000Z</time>
      </trkpt>
      <trkpt lat="44.73065" lon="5.02441">
        <ele>245.1</ele>
        <time>2022-10-16T08:44:01.000Z</time>
      </trkpt>
      <trkpt lat="44.73056" lon="5.02437">
        <ele>241.7</ele>
        <time>2022-10-16T08:44:09.000Z</time>
      </trkpt>
      <trkpt lat="44.73047" lon="5.02432">
        <ele>239.5</ele>
        <time>2022-10-16T08:44:17.000Z</time>
      </trkpt>
      <trkpt lat="44.73039" lon="5.02425">
        <ele>239.3</ele>
        <time>2022-10-16T08:44:26.000Z</time>
      </trkpt>
      <trkpt lat="44.73044" lon="5.02436">
        <ele>233.6</ele>
        <time>2022-10-16T08:45:18.000Z</time>
      </trkpt>
      <trkpt lat="44.73037" lon="5.02447">
        <ele>230.7</ele>
        <time>2022-10-16T08:45:27.000Z</time>
      </trkpt>
      <trkpt lat="44.73036" lon="5.0245">
        <ele>229.8</ele>
        <time>2022-10-16T08:45:31.000Z</time>
      </trkpt>
      <trkpt lat="44.73037" lon="5.0245">
        <ele>230.1</ele>
        <time>2022-10-16T08:45:32.000Z</time>
      </trkpt>
      <trkpt lat="44.73033" lon="5.02463">
        <ele>226.1</ele>
        <time>2022-10-16T08:45:46.000Z</time>
      </trkpt>
      <trkpt lat="44.73031" lon="5.02468">
        <ele>224.7</ele>
        <time>2022-10-16T08:45:57.000Z</time>
      </trkpt>
      <trkpt lat="44.7303" lon="5.02469">
        <ele>224.7</ele>
        <time>2022-10-16T08:45:59.000Z</time>
      </trkpt>
      <trkpt lat="44.73021" lon="5.02467">
        <ele>221.8</ele>
        <time>2022-10-16T08:46:14.000Z</time>
      </trkpt>
      <trkpt lat="44.73012" lon="5.02464">
        <ele>220</ele>
        <time>2022-10-16T08:46:25.000Z</time>
      </trkpt>
      <trkpt lat="44.73006" lon="5.02454">
        <ele>217.3</ele>
        <time>2022-10-16T08:46:36.000Z</time>
      </trkpt>
      <trkpt lat="44.72997" lon="5.02454">
        <ele>211.5</ele>
        <time>2022-10-16T08:47:04.000Z</time>
      </trkpt>
      <trkpt lat="44.72995" lon="5.02455">
        <ele>209.8</ele>
        <time>2022-10-16T08:47:10.000Z</time>
      </trkpt>
      <trkpt lat="44.72994" lon="5.02456">
        <ele>209.4</ele>
        <time>2022-10-16T08:47:11.000Z</time>
      </trkpt>
      <trkpt lat="44.72988" lon="5.02466">
        <ele>207.5</ele>
        <time>2022-10-16T08:47:20.000Z</time>
      </trkpt>
      <trkpt lat="44.72981" lon="5.02475">
        <ele>205.9</ele>
        <time>2022-10-16T08:47:32.000Z</time>
      </trkpt>
      <trkpt lat="44.72982" lon="5.02473">
        <ele>203.2</ele>
        <time>2022-10-16T08:47:51.000Z</time>
      </trkpt>
      <trkpt lat="44.72982" lon="5.02473">
        <ele>203.2</ele>
        <time>2022-10-16T08:47:52.000Z</time>
      </trkpt>
      <trkpt lat="44.72982" lon="5.02473">
        <ele>203.2</ele>
        <time>2022-10-16T08:47:57.000Z</time>
      </trkpt>
      <trkpt lat="44.72982" lon="5.02472">
        <ele>203.2</ele>
        <time>2022-10-16T08:48:00.000Z</time>
      </trkpt>
      <trkpt lat="44.72981" lon="5.02471">
        <ele>203.1</ele>
        <time>2022-10-16T08:48:05.000Z</time>
      </trkpt>
      <trkpt lat="44.7298" lon="5.02471">
        <ele>203</ele>
        <time>2022-10-16T08:48:06.000Z</time>
      </trkpt>
      <trkpt lat="44.7298" lon="5.02471">
        <ele>203.4</ele>
        <time>2022-10-16T08:48:07.000Z</time>
      </trkpt>
      <trkpt lat="44.7298" lon="5.02471">
        <ele>203</ele>
        <time>2022-10-16T08:48:08.000Z</time>
      </trkpt>
      <trkpt lat="44.72977" lon="5.02467">
        <ele>201.5</ele>
        <time>2022-10-16T08:48:19.000Z</time>
      </trkpt>
      <trkpt lat="44.72976" lon="5.02468">
        <ele>201</ele>
        <time>2022-10-16T08:48:20.000Z</time>
      </trkpt>
      <trkpt lat="44.72969" lon="5.0246">
        <ele>200.5</ele>
        <time>2022-10-16T08:48:38.000Z</time>
      </trkpt>
      <trkpt lat="44.72969" lon="5.02459">
        <ele>200.3</ele>
        <time>2022-10-16T08:48:39.000Z</time>
      </trkpt>
      <trkpt lat="44.72967" lon="5.02446">
        <ele>200</ele>
        <time>2022-10-16T08:48:53.000Z</time>
      </trkpt>
      <trkpt lat="44.72968" lon="5.02434">
        <ele>198.6</ele>
        <time>2022-10-16T08:49:13.000Z</time>
      </trkpt>
      <trkpt lat="44.72969" lon="5.02432">
        <ele>198.8</ele>
        <time>2022-10-16T08:49:21.000Z</time>
      </trkpt>
      <trkpt lat="44.72968" lon="5.02431">
        <ele>198.8</ele>
        <time>2022-10-16T08:49:22.000Z</time>
      </trkpt>
      <trkpt lat="44.72962" lon="5.02422">
        <ele>195.1</ele>
        <time>2022-10-16T08:49:56.000Z</time>
      </trkpt>
      <trkpt lat="44.72955" lon="5.02412">
        <ele>193</ele>
        <time>2022-10-16T08:50:10.000Z</time>
      </trkpt>
      <trkpt lat="44.72947" lon="5.02404">
        <ele>192.5</ele>
        <time>2022-10-16T08:50:26.000Z</time>
      </trkpt>
      <trkpt lat="44.72938" lon="5.02398">
        <ele>190.7</ele>
        <time>2022-10-16T08:50:43.000Z</time>
      </trkpt>
      <trkpt lat="44.7293" lon="5.02392">
        <ele>187.7</ele>
        <time>2022-10-16T08:50:59.000Z</time>
      </trkpt>
      <trkpt lat="44.7292" lon="5.02389">
        <ele>184.8</ele>
        <time>2022-10-16T08:51:10.000Z</time>
      </trkpt>
      <trkpt lat="44.72917" lon="5.02376">
        <ele>182.4</ele>
        <time>2022-10-16T08:51:29.000Z</time>
      </trkpt>
      <trkpt lat="44.72914" lon="5.02376">
        <ele>181.4</ele>
        <time>2022-10-16T08:52:05.000Z</time>
      </trkpt>
      <trkpt lat="44.72913" lon="5.02377">
        <ele>181.5</ele>
        <time>2022-10-16T08:52:06.000Z</time>
      </trkpt>
      <trkpt lat="44.72902" lon="5.02372">
        <ele>181.3</ele>
        <time>2022-10-16T08:52:10.000Z</time>
      </trkpt>
      <trkpt lat="44.72893" lon="5.02371">
        <ele>180.2</ele>
        <time>2022-10-16T08:52:16.000Z</time>
      </trkpt>
      <trkpt lat="44.72884" lon="5.02369">
        <ele>174.4</ele>
        <time>2022-10-16T08:52:48.000Z</time>
      </trkpt>
      <trkpt lat="44.72875" lon="5.0237">
        <ele>172.4</ele>
        <time>2022-10-16T08:53:03.000Z</time>
      </trkpt>
      <trkpt lat="44.72864" lon="5.02366">
        <ele>172.7</ele>
        <time>2022-10-16T08:53:10.000Z</time>
      </trkpt>
      <trkpt lat="44.72871" lon="5.02378">
        <ele>168.7</ele>
        <time>2022-10-16T08:53:24.000Z</time>
      </trkpt>
      <trkpt lat="44.72873" lon="5.0239">
        <ele>167.8</ele>
        <time>2022-10-16T08:53:34.000Z</time>
      </trkpt>
      <trkpt lat="44.72866" lon="5.02398">
        <ele>165.6</ele>
        <time>2022-10-16T08:53:52.000Z</time>
      </trkpt>
      <trkpt lat="44.72856" lon="5.02396">
        <ele>164.7</ele>
        <time>2022-10-16T08:54:17.000Z</time>
      </trkpt>
      <trkpt lat="44.72853" lon="5.02384">
        <ele>164.7</ele>
        <time>2022-10-16T08:54:30.000Z</time>
      </trkpt>
      <trkpt lat="44.72852" lon="5.0237">
        <ele>165.2</ele>
        <time>2022-10-16T08:54:40.000Z</time>
      </trkpt>
      <trkpt lat="44.72848" lon="5.02358">
        <ele>165.4</ele>
        <time>2022-10-16T08:54:50.000Z</time>
      </trkpt>
      <trkpt lat="44.72847" lon="5.02345">
        <ele>164.9</ele>
        <time>2022-10-16T08:54:59.000Z</time>
      </trkpt>
      <trkpt lat="44.72848" lon="5.02331">
        <ele>165.8</ele>
        <time>2022-10-16T08:55:11.000Z</time>
      </trkpt>
      <trkpt lat="44.72847" lon="5.02319">
        <ele>166</ele>
        <time>2022-10-16T08:55:19.000Z</time>
      </trkpt>
      <trkpt lat="44.72852" lon="5.02306">
        <ele>166.4</ele>
        <time>2022-10-16T08:55:23.000Z</time>
      </trkpt>
      <trkpt lat="44.72855" lon="5.02292">
        <ele>166.2</ele>
        <time>2022-10-16T08:55:28.000Z</time>
      </trkpt>
      <trkpt lat="44.72852" lon="5.0228">
        <ele>166.8</ele>
        <time>2022-10-16T08:55:34.000Z</time>
      </trkpt>
      <trkpt lat="44.72852" lon="5.02267">
        <ele>167.2</ele>
        <time>2022-10-16T08:55:42.000Z</time>
      </trkpt>
      <trkpt lat="44.72849" lon="5.02255">
        <ele>167.3</ele>
        <time>2022-10-16T08:55:48.000Z</time>
      </trkpt>
      <trkpt lat="44.72847" lon="5.02241">
        <ele>167.7</ele>
        <time>2022-10-16T08:55:58.000Z</time>
      </trkpt>
      <trkpt lat="44.72844" lon="5.02229">
        <ele>166.8</ele>
        <time>2022-10-16T08:56:06.000Z</time>
      </trkpt>
      <trkpt lat="44.72844" lon="5.02208">
        <ele>167</ele>
        <time>2022-10-16T08:57:26.000Z</time>
      </trkpt>
      <trkpt lat="44.72848" lon="5.02195">
        <ele>166.3</ele>
        <time>2022-10-16T08:57:33.000Z</time>
      </trkpt>
      <trkpt lat="44.7284" lon="5.02187">
        <ele>165.8</ele>
        <time>2022-10-16T08:57:43.000Z</time>
      </trkpt>
      <trkpt lat="44.72831" lon="5.02188">
        <ele>164.4</ele>
        <time>2022-10-16T08:57:48.000Z</time>
      </trkpt>
      <trkpt lat="44.72822" lon="5.02185">
        <ele>164</ele>
        <time>2022-10-16T08:57:57.000Z</time>
      </trkpt>
      <trkpt lat="44.72812" lon="5.02177">
        <ele>163.6</ele>
        <time>2022-10-16T08:58:05.000Z</time>
      </trkpt>
      <trkpt lat="44.72811" lon="5.02177">
        <ele>163.6</ele>
        <time>2022-10-16T08:58:07.000Z</time>
      </trkpt>
      <trkpt lat="44.72809" lon="5.02176">
        <ele>163.5</ele>
        <time>2022-10-16T08:58:08.000Z</time>
      </trkpt>
      <trkpt lat="44.72801" lon="5.0217">
        <ele>162.9</ele>
        <time>2022-10-16T08:58:15.000Z</time>
      </trkpt>
      <trkpt lat="44.72797" lon="5.02159">
        <ele>163.2</ele>
        <time>2022-10-16T08:58:27.000Z</time>
      </trkpt>
      <trkpt lat="44.72789" lon="5.02149">
        <ele>162.7</ele>
        <time>2022-10-16T08:58:59.000Z</time>
      </trkpt>
      <trkpt lat="44.72785" lon="5.02148">
        <ele>162.7</ele>
        <time>2022-10-16T08:59:12.000Z</time>
      </trkpt>
      <trkpt lat="44.72785" lon="5.02148">
        <ele>162.6</ele>
        <time>2022-10-16T08:59:13.000Z</time>
      </trkpt>
      <trkpt lat="44.72785" lon="5.02147">
        <ele>162.8</ele>
        <time>2022-10-16T08:59:15.000Z</time>
      </trkpt>
      <trkpt lat="44.72785" lon="5.02147">
        <ele>162.8</ele>
        <time>2022-10-16T08:59:15.000Z</time>
      </trkpt>
    </trkseg>
  </trk>
</gpx>